<?xml version="1.0" encoding="UTF-8" standalone="no" ?>
<gpx xmlns="http://www.topografix.com/GPX/1/1" xmlns:xsi="http://www.w3.org/2001/XMLSchema-instance" xsi:schemaLocation="http://www.topografix.com/GPX/1/1 http://www.topografix.com/GPX/1/1/gpx.xsd" version="1.1" creator="VisuGPX - https://www.visugpx.com">
  <metadata>
    <name>64 - PEDESTRE - Aas - Boucle à la montagne verte</name>
    <desc><![CDATA[Une dernière sortie de l'année avant les sorties raquettes]]></desc>
  </metadata>
  <trk>
    <name><![CDATA[montagne verte]]></name>
    <trkseg>
      <trkpt lat="42.97906" lon="-0.3981">
        <ele>785.5</ele>
        <time>2015-12-03T09:52:17Z</time>
      </trkpt>
      <trkpt lat="42.97906" lon="-0.3981">
        <ele>785.5</ele>
        <time>2015-12-03T09:52:19Z</time>
      </trkpt>
      <trkpt lat="42.97906" lon="-0.3981">
        <ele>787</ele>
        <time>2015-12-03T09:52:21Z</time>
      </trkpt>
      <trkpt lat="42.97911" lon="-0.39816">
        <ele>787</ele>
        <time>2015-12-03T09:52:46Z</time>
      </trkpt>
      <trkpt lat="42.97911" lon="-0.39811">
        <ele>787.5</ele>
        <time>2015-12-03T09:53:13Z</time>
      </trkpt>
      <trkpt lat="42.97913" lon="-0.39815">
        <ele>787.5</ele>
        <time>2015-12-03T09:53:17Z</time>
      </trkpt>
      <trkpt lat="42.97916" lon="-0.39824">
        <ele>786.5</ele>
        <time>2015-12-03T09:53:31Z</time>
      </trkpt>
      <trkpt lat="42.97932" lon="-0.39852">
        <ele>784.6</ele>
        <time>2015-12-03T09:53:52Z</time>
      </trkpt>
      <trkpt lat="42.97953" lon="-0.39886">
        <ele>781.7</ele>
        <time>2015-12-03T09:54:17Z</time>
      </trkpt>
      <trkpt lat="42.97975" lon="-0.39918">
        <ele>778.8</ele>
        <time>2015-12-03T09:54:42Z</time>
      </trkpt>
      <trkpt lat="42.97991" lon="-0.39944">
        <ele>775.4</ele>
        <time>2015-12-03T09:55:00Z</time>
      </trkpt>
      <trkpt lat="42.97997" lon="-0.39954">
        <ele>775.4</ele>
        <time>2015-12-03T09:55:07Z</time>
      </trkpt>
      <trkpt lat="42.98002" lon="-0.39957">
        <ele>774.5</ele>
        <time>2015-12-03T09:55:11Z</time>
      </trkpt>
      <trkpt lat="42.98007" lon="-0.39961">
        <ele>774.5</ele>
        <time>2015-12-03T09:55:15Z</time>
      </trkpt>
      <trkpt lat="42.98012" lon="-0.39963">
        <ele>774</ele>
        <time>2015-12-03T09:55:19Z</time>
      </trkpt>
      <trkpt lat="42.98016" lon="-0.39965">
        <ele>773.5</ele>
        <time>2015-12-03T09:55:23Z</time>
      </trkpt>
      <trkpt lat="42.98019" lon="-0.39971">
        <ele>773</ele>
        <time>2015-12-03T09:55:27Z</time>
      </trkpt>
      <trkpt lat="42.98024" lon="-0.39976">
        <ele>772.1</ele>
        <time>2015-12-03T09:55:32Z</time>
      </trkpt>
      <trkpt lat="42.98036" lon="-0.3999">
        <ele>768.7</ele>
        <time>2015-12-03T09:55:46Z</time>
      </trkpt>
      <trkpt lat="42.9805" lon="-0.40012">
        <ele>767.3</ele>
        <time>2015-12-03T09:56:03Z</time>
      </trkpt>
      <trkpt lat="42.98066" lon="-0.4003">
        <ele>765.3</ele>
        <time>2015-12-03T09:56:19Z</time>
      </trkpt>
      <trkpt lat="42.98074" lon="-0.40047">
        <ele>762</ele>
        <time>2015-12-03T09:56:32Z</time>
      </trkpt>
      <trkpt lat="42.98078" lon="-0.40059">
        <ele>760.1</ele>
        <time>2015-12-03T09:56:41Z</time>
      </trkpt>
      <trkpt lat="42.98081" lon="-0.40069">
        <ele>759.1</ele>
        <time>2015-12-03T09:56:47Z</time>
      </trkpt>
      <trkpt lat="42.98087" lon="-0.40102">
        <ele>757.7</ele>
        <time>2015-12-03T09:57:07Z</time>
      </trkpt>
      <trkpt lat="42.98091" lon="-0.40123">
        <ele>754.8</ele>
        <time>2015-12-03T09:57:20Z</time>
      </trkpt>
      <trkpt lat="42.98096" lon="-0.40138">
        <ele>751.9</ele>
        <time>2015-12-03T09:57:31Z</time>
      </trkpt>
      <trkpt lat="42.98101" lon="-0.40159">
        <ele>748.5</ele>
        <time>2015-12-03T09:57:47Z</time>
      </trkpt>
      <trkpt lat="42.98101" lon="-0.40162">
        <ele>748</ele>
        <time>2015-12-03T09:57:49Z</time>
      </trkpt>
      <trkpt lat="42.98101" lon="-0.40165">
        <ele>747.1</ele>
        <time>2015-12-03T09:57:51Z</time>
      </trkpt>
      <trkpt lat="42.98101" lon="-0.40175">
        <ele>746.6</ele>
        <time>2015-12-03T09:57:57Z</time>
      </trkpt>
      <trkpt lat="42.98097" lon="-0.40196">
        <ele>742.8</ele>
        <time>2015-12-03T09:58:12Z</time>
      </trkpt>
      <trkpt lat="42.98092" lon="-0.40218">
        <ele>740.4</ele>
        <time>2015-12-03T09:58:29Z</time>
      </trkpt>
      <trkpt lat="42.98091" lon="-0.40229">
        <ele>738.9</ele>
        <time>2015-12-03T09:58:40Z</time>
      </trkpt>
      <trkpt lat="42.9809" lon="-0.40247">
        <ele>737.5</ele>
        <time>2015-12-03T09:58:55Z</time>
      </trkpt>
      <trkpt lat="42.98091" lon="-0.40241">
        <ele>737.9</ele>
        <time>2015-12-03T09:58:59Z</time>
      </trkpt>
      <trkpt lat="42.98093" lon="-0.40225">
        <ele>740.4</ele>
        <time>2015-12-03T09:59:12Z</time>
      </trkpt>
      <trkpt lat="42.98094" lon="-0.4022">
        <ele>740.8</ele>
        <time>2015-12-03T09:59:27Z</time>
      </trkpt>
      <trkpt lat="42.98094" lon="-0.40217">
        <ele>741.3</ele>
        <time>2015-12-03T09:59:41Z</time>
      </trkpt>
      <trkpt lat="42.9809" lon="-0.40241">
        <ele>738.4</ele>
        <time>2015-12-03T09:59:58Z</time>
      </trkpt>
      <trkpt lat="42.98094" lon="-0.40256">
        <ele>735.5</ele>
        <time>2015-12-03T10:00:06Z</time>
      </trkpt>
      <trkpt lat="42.98095" lon="-0.40279">
        <ele>734.1</ele>
        <time>2015-12-03T10:00:19Z</time>
      </trkpt>
      <trkpt lat="42.98105" lon="-0.40308">
        <ele>730.7</ele>
        <time>2015-12-03T10:00:37Z</time>
      </trkpt>
      <trkpt lat="42.98105" lon="-0.40309">
        <ele>730.7</ele>
        <time>2015-12-03T10:00:38Z</time>
      </trkpt>
      <trkpt lat="42.98123" lon="-0.40336">
        <ele>728.8</ele>
        <time>2015-12-03T10:00:58Z</time>
      </trkpt>
      <trkpt lat="42.98133" lon="-0.40361">
        <ele>726.4</ele>
        <time>2015-12-03T10:01:16Z</time>
      </trkpt>
      <trkpt lat="42.98134" lon="-0.40363">
        <ele>726.4</ele>
        <time>2015-12-03T10:01:37Z</time>
      </trkpt>
      <trkpt lat="42.98134" lon="-0.40361">
        <ele>726.9</ele>
        <time>2015-12-03T10:02:01Z</time>
      </trkpt>
      <trkpt lat="42.98135" lon="-0.40379">
        <ele>723.5</ele>
        <time>2015-12-03T10:02:17Z</time>
      </trkpt>
      <trkpt lat="42.98136" lon="-0.40388">
        <ele>720.6</ele>
        <time>2015-12-03T10:02:25Z</time>
      </trkpt>
      <trkpt lat="42.98139" lon="-0.40394">
        <ele>720.2</ele>
        <time>2015-12-03T10:02:43Z</time>
      </trkpt>
      <trkpt lat="42.98139" lon="-0.40382">
        <ele>722.1</ele>
        <time>2015-12-03T10:03:11Z</time>
      </trkpt>
      <trkpt lat="42.98139" lon="-0.4036">
        <ele>725.9</ele>
        <time>2015-12-03T10:03:26Z</time>
      </trkpt>
      <trkpt lat="42.98134" lon="-0.40343">
        <ele>727.9</ele>
        <time>2015-12-03T10:03:41Z</time>
      </trkpt>
      <trkpt lat="42.98118" lon="-0.40325">
        <ele>729.8</ele>
        <time>2015-12-03T10:03:59Z</time>
      </trkpt>
      <trkpt lat="42.98112" lon="-0.40319">
        <ele>730.3</ele>
        <time>2015-12-03T10:04:06Z</time>
      </trkpt>
      <trkpt lat="42.98107" lon="-0.40315">
        <ele>731.7</ele>
        <time>2015-12-03T10:04:11Z</time>
      </trkpt>
      <trkpt lat="42.98101" lon="-0.403">
        <ele>734.1</ele>
        <time>2015-12-03T10:04:21Z</time>
      </trkpt>
      <trkpt lat="42.981" lon="-0.40299">
        <ele>733.6</ele>
        <time>2015-12-03T10:04:22Z</time>
      </trkpt>
      <trkpt lat="42.98097" lon="-0.40292">
        <ele>734.6</ele>
        <time>2015-12-03T10:04:27Z</time>
      </trkpt>
      <trkpt lat="42.98097" lon="-0.40287">
        <ele>734.6</ele>
        <time>2015-12-03T10:04:31Z</time>
      </trkpt>
      <trkpt lat="42.98094" lon="-0.40264">
        <ele>735.5</ele>
        <time>2015-12-03T10:04:45Z</time>
      </trkpt>
      <trkpt lat="42.98093" lon="-0.40262">
        <ele>737.5</ele>
        <time>2015-12-03T10:04:47Z</time>
      </trkpt>
      <trkpt lat="42.98091" lon="-0.40236">
        <ele>739.9</ele>
        <time>2015-12-03T10:05:02Z</time>
      </trkpt>
      <trkpt lat="42.98091" lon="-0.40224">
        <ele>742.3</ele>
        <time>2015-12-03T10:05:14Z</time>
      </trkpt>
      <trkpt lat="42.98096" lon="-0.40207">
        <ele>745.2</ele>
        <time>2015-12-03T10:05:27Z</time>
      </trkpt>
      <trkpt lat="42.98101" lon="-0.40183">
        <ele>748.5</ele>
        <time>2015-12-03T10:05:40Z</time>
      </trkpt>
      <trkpt lat="42.981" lon="-0.40169">
        <ele>750.9</ele>
        <time>2015-12-03T10:05:51Z</time>
      </trkpt>
      <trkpt lat="42.98099" lon="-0.40145">
        <ele>752.8</ele>
        <time>2015-12-03T10:06:06Z</time>
      </trkpt>
      <trkpt lat="42.98096" lon="-0.40135">
        <ele>755.7</ele>
        <time>2015-12-03T10:06:14Z</time>
      </trkpt>
      <trkpt lat="42.98091" lon="-0.40114">
        <ele>758.1</ele>
        <time>2015-12-03T10:06:28Z</time>
      </trkpt>
      <trkpt lat="42.98094" lon="-0.40108">
        <ele>761</ele>
        <time>2015-12-03T10:06:40Z</time>
      </trkpt>
      <trkpt lat="42.98096" lon="-0.40115">
        <ele>762</ele>
        <time>2015-12-03T10:06:45Z</time>
      </trkpt>
      <trkpt lat="42.98117" lon="-0.40137">
        <ele>764.4</ele>
        <time>2015-12-03T10:07:08Z</time>
      </trkpt>
      <trkpt lat="42.98121" lon="-0.40143">
        <ele>764.4</ele>
        <time>2015-12-03T10:07:13Z</time>
      </trkpt>
      <trkpt lat="42.98133" lon="-0.40169">
        <ele>763.4</ele>
        <time>2015-12-03T10:07:32Z</time>
      </trkpt>
      <trkpt lat="42.98137" lon="-0.40185">
        <ele>761.5</ele>
        <time>2015-12-03T10:07:42Z</time>
      </trkpt>
      <trkpt lat="42.9814" lon="-0.40199">
        <ele>761</ele>
        <time>2015-12-03T10:08:02Z</time>
      </trkpt>
      <trkpt lat="42.98148" lon="-0.40222">
        <ele>758.6</ele>
        <time>2015-12-03T10:08:16Z</time>
      </trkpt>
      <trkpt lat="42.98155" lon="-0.40242">
        <ele>756.7</ele>
        <time>2015-12-03T10:08:29Z</time>
      </trkpt>
      <trkpt lat="42.98154" lon="-0.40245">
        <ele>756.2</ele>
        <time>2015-12-03T10:08:39Z</time>
      </trkpt>
      <trkpt lat="42.98154" lon="-0.40248">
        <ele>756.2</ele>
        <time>2015-12-03T10:08:50Z</time>
      </trkpt>
      <trkpt lat="42.98168" lon="-0.40277">
        <ele>755.3</ele>
        <time>2015-12-03T10:09:10Z</time>
      </trkpt>
      <trkpt lat="42.98187" lon="-0.40305">
        <ele>756.7</ele>
        <time>2015-12-03T10:09:31Z</time>
      </trkpt>
      <trkpt lat="42.98201" lon="-0.40328">
        <ele>757.7</ele>
        <time>2015-12-03T10:09:48Z</time>
      </trkpt>
      <trkpt lat="42.98217" lon="-0.4036">
        <ele>755.7</ele>
        <time>2015-12-03T10:10:10Z</time>
      </trkpt>
      <trkpt lat="42.98226" lon="-0.40392">
        <ele>754.3</ele>
        <time>2015-12-03T10:10:30Z</time>
      </trkpt>
      <trkpt lat="42.98232" lon="-0.40409">
        <ele>751.4</ele>
        <time>2015-12-03T10:10:41Z</time>
      </trkpt>
      <trkpt lat="42.98242" lon="-0.40441">
        <ele>748</ele>
        <time>2015-12-03T10:11:02Z</time>
      </trkpt>
      <trkpt lat="42.98251" lon="-0.40465">
        <ele>745.2</ele>
        <time>2015-12-03T10:11:18Z</time>
      </trkpt>
      <trkpt lat="42.98269" lon="-0.40498">
        <ele>743.2</ele>
        <time>2015-12-03T10:11:42Z</time>
      </trkpt>
      <trkpt lat="42.98286" lon="-0.40521">
        <ele>739.9</ele>
        <time>2015-12-03T10:12:00Z</time>
      </trkpt>
      <trkpt lat="42.98309" lon="-0.40548">
        <ele>741.8</ele>
        <time>2015-12-03T10:12:22Z</time>
      </trkpt>
      <trkpt lat="42.98324" lon="-0.40571">
        <ele>741.3</ele>
        <time>2015-12-03T10:12:39Z</time>
      </trkpt>
      <trkpt lat="42.98348" lon="-0.406">
        <ele>740.8</ele>
        <time>2015-12-03T10:13:02Z</time>
      </trkpt>
      <trkpt lat="42.98381" lon="-0.40623">
        <ele>741.3</ele>
        <time>2015-12-03T10:13:29Z</time>
      </trkpt>
      <trkpt lat="42.98411" lon="-0.40631">
        <ele>741.3</ele>
        <time>2015-12-03T10:13:51Z</time>
      </trkpt>
      <trkpt lat="42.98442" lon="-0.40622">
        <ele>738.4</ele>
        <time>2015-12-03T10:14:13Z</time>
      </trkpt>
      <trkpt lat="42.98472" lon="-0.40618">
        <ele>737</ele>
        <time>2015-12-03T10:14:36Z</time>
      </trkpt>
      <trkpt lat="42.98491" lon="-0.4062">
        <ele>734.6</ele>
        <time>2015-12-03T10:14:51Z</time>
      </trkpt>
      <trkpt lat="42.98513" lon="-0.40612">
        <ele>731.2</ele>
        <time>2015-12-03T10:15:09Z</time>
      </trkpt>
      <trkpt lat="42.98518" lon="-0.40615">
        <ele>730.3</ele>
        <time>2015-12-03T10:15:14Z</time>
      </trkpt>
      <trkpt lat="42.98521" lon="-0.40621">
        <ele>729.3</ele>
        <time>2015-12-03T10:15:19Z</time>
      </trkpt>
      <trkpt lat="42.98503" lon="-0.40645">
        <ele>728.3</ele>
        <time>2015-12-03T10:15:40Z</time>
      </trkpt>
      <trkpt lat="42.98494" lon="-0.40668">
        <ele>726.4</ele>
        <time>2015-12-03T10:15:58Z</time>
      </trkpt>
      <trkpt lat="42.985" lon="-0.40675">
        <ele>725</ele>
        <time>2015-12-03T10:16:12Z</time>
      </trkpt>
      <trkpt lat="42.98518" lon="-0.40684">
        <ele>721.6</ele>
        <time>2015-12-03T10:16:26Z</time>
      </trkpt>
      <trkpt lat="42.9852" lon="-0.40683">
        <ele>721.1</ele>
        <time>2015-12-03T10:16:28Z</time>
      </trkpt>
      <trkpt lat="42.98531" lon="-0.40667">
        <ele>717.8</ele>
        <time>2015-12-03T10:16:40Z</time>
      </trkpt>
      <trkpt lat="42.98532" lon="-0.40665">
        <ele>717.8</ele>
        <time>2015-12-03T10:16:41Z</time>
      </trkpt>
      <trkpt lat="42.98547" lon="-0.40652">
        <ele>716.8</ele>
        <time>2015-12-03T10:16:55Z</time>
      </trkpt>
      <trkpt lat="42.9855" lon="-0.40654">
        <ele>715.4</ele>
        <time>2015-12-03T10:16:58Z</time>
      </trkpt>
      <trkpt lat="42.98552" lon="-0.40669">
        <ele>713.4</ele>
        <time>2015-12-03T10:17:07Z</time>
      </trkpt>
      <trkpt lat="42.98542" lon="-0.40688">
        <ele>711</ele>
        <time>2015-12-03T10:17:22Z</time>
      </trkpt>
      <trkpt lat="42.98538" lon="-0.40704">
        <ele>707.2</ele>
        <time>2015-12-03T10:17:33Z</time>
      </trkpt>
      <trkpt lat="42.98538" lon="-0.40706">
        <ele>707.7</ele>
        <time>2015-12-03T10:17:34Z</time>
      </trkpt>
      <trkpt lat="42.98539" lon="-0.40714">
        <ele>707.2</ele>
        <time>2015-12-03T10:17:39Z</time>
      </trkpt>
      <trkpt lat="42.98542" lon="-0.40734">
        <ele>703.8</ele>
        <time>2015-12-03T10:17:53Z</time>
      </trkpt>
      <trkpt lat="42.98545" lon="-0.40761">
        <ele>700.5</ele>
        <time>2015-12-03T10:18:11Z</time>
      </trkpt>
      <trkpt lat="42.98547" lon="-0.40764">
        <ele>700</ele>
        <time>2015-12-03T10:18:13Z</time>
      </trkpt>
      <trkpt lat="42.98562" lon="-0.40788">
        <ele>696.6</ele>
        <time>2015-12-03T10:18:32Z</time>
      </trkpt>
      <trkpt lat="42.98576" lon="-0.4077">
        <ele>695.2</ele>
        <time>2015-12-03T10:18:47Z</time>
      </trkpt>
      <trkpt lat="42.98574" lon="-0.40752">
        <ele>692.3</ele>
        <time>2015-12-03T10:18:58Z</time>
      </trkpt>
      <trkpt lat="42.98593" lon="-0.40733">
        <ele>691.3</ele>
        <time>2015-12-03T10:19:17Z</time>
      </trkpt>
      <trkpt lat="42.98616" lon="-0.40724">
        <ele>689.4</ele>
        <time>2015-12-03T10:19:36Z</time>
      </trkpt>
      <trkpt lat="42.98636" lon="-0.40733">
        <ele>686.5</ele>
        <time>2015-12-03T10:19:53Z</time>
      </trkpt>
      <trkpt lat="42.98648" lon="-0.40741">
        <ele>683.2</ele>
        <time>2015-12-03T10:20:04Z</time>
      </trkpt>
      <trkpt lat="42.98667" lon="-0.40758">
        <ele>680.3</ele>
        <time>2015-12-03T10:20:22Z</time>
      </trkpt>
      <trkpt lat="42.98693" lon="-0.40777">
        <ele>676.9</ele>
        <time>2015-12-03T10:20:45Z</time>
      </trkpt>
      <trkpt lat="42.98716" lon="-0.40784">
        <ele>674</ele>
        <time>2015-12-03T10:21:04Z</time>
      </trkpt>
      <trkpt lat="42.98732" lon="-0.40795">
        <ele>670.7</ele>
        <time>2015-12-03T10:21:18Z</time>
      </trkpt>
      <trkpt lat="42.98745" lon="-0.40801">
        <ele>667.3</ele>
        <time>2015-12-03T10:21:29Z</time>
      </trkpt>
      <trkpt lat="42.98765" lon="-0.40807">
        <ele>663.9</ele>
        <time>2015-12-03T10:21:46Z</time>
      </trkpt>
      <trkpt lat="42.98781" lon="-0.40811">
        <ele>661</ele>
        <time>2015-12-03T10:21:59Z</time>
      </trkpt>
      <trkpt lat="42.98804" lon="-0.40818">
        <ele>657.7</ele>
        <time>2015-12-03T10:22:18Z</time>
      </trkpt>
      <trkpt lat="42.98817" lon="-0.40821">
        <ele>656.7</ele>
        <time>2015-12-03T10:22:35Z</time>
      </trkpt>
      <trkpt lat="42.98843" lon="-0.40829">
        <ele>654.3</ele>
        <time>2015-12-03T10:22:56Z</time>
      </trkpt>
      <trkpt lat="42.98851" lon="-0.40833">
        <ele>652.9</ele>
        <time>2015-12-03T10:23:03Z</time>
      </trkpt>
      <trkpt lat="42.98856" lon="-0.40839">
        <ele>651.9</ele>
        <time>2015-12-03T10:23:08Z</time>
      </trkpt>
      <trkpt lat="42.98872" lon="-0.40854">
        <ele>647.6</ele>
        <time>2015-12-03T10:23:24Z</time>
      </trkpt>
      <trkpt lat="42.98889" lon="-0.40874">
        <ele>645.2</ele>
        <time>2015-12-03T10:23:42Z</time>
      </trkpt>
      <trkpt lat="42.98908" lon="-0.40896">
        <ele>642.3</ele>
        <time>2015-12-03T10:24:02Z</time>
      </trkpt>
      <trkpt lat="42.98914" lon="-0.40898">
        <ele>640.9</ele>
        <time>2015-12-03T10:24:07Z</time>
      </trkpt>
      <trkpt lat="42.98941" lon="-0.40901">
        <ele>638</ele>
        <time>2015-12-03T10:24:29Z</time>
      </trkpt>
      <trkpt lat="42.98952" lon="-0.40901">
        <ele>636.5</ele>
        <time>2015-12-03T10:24:37Z</time>
      </trkpt>
      <trkpt lat="42.98966" lon="-0.40904">
        <ele>635.1</ele>
        <time>2015-12-03T10:24:49Z</time>
      </trkpt>
      <trkpt lat="42.98976" lon="-0.40911">
        <ele>636</ele>
        <time>2015-12-03T10:24:58Z</time>
      </trkpt>
      <trkpt lat="42.99001" lon="-0.40913">
        <ele>638.9</ele>
        <time>2015-12-03T10:25:18Z</time>
      </trkpt>
      <trkpt lat="42.99006" lon="-0.40914">
        <ele>638.5</ele>
        <time>2015-12-03T10:25:22Z</time>
      </trkpt>
      <trkpt lat="42.99011" lon="-0.40912">
        <ele>639.4</ele>
        <time>2015-12-03T10:25:26Z</time>
      </trkpt>
      <trkpt lat="42.99036" lon="-0.40918">
        <ele>642.3</ele>
        <time>2015-12-03T10:25:47Z</time>
      </trkpt>
      <trkpt lat="42.99062" lon="-0.4093">
        <ele>644.7</ele>
        <time>2015-12-03T10:26:08Z</time>
      </trkpt>
      <trkpt lat="42.99087" lon="-0.40951">
        <ele>645.7</ele>
        <time>2015-12-03T10:26:31Z</time>
      </trkpt>
      <trkpt lat="42.99108" lon="-0.40971">
        <ele>648.1</ele>
        <time>2015-12-03T10:26:51Z</time>
      </trkpt>
      <trkpt lat="42.99123" lon="-0.40983">
        <ele>649.5</ele>
        <time>2015-12-03T10:27:09Z</time>
      </trkpt>
      <trkpt lat="42.99123" lon="-0.40983">
        <ele>649.5</ele>
        <time>2015-12-03T10:27:12Z</time>
      </trkpt>
      <trkpt lat="42.99141" lon="-0.40955">
        <ele>650.5</ele>
        <time>2015-12-03T10:27:35Z</time>
      </trkpt>
      <trkpt lat="42.99154" lon="-0.40929">
        <ele>653.8</ele>
        <time>2015-12-03T10:27:54Z</time>
      </trkpt>
      <trkpt lat="42.99169" lon="-0.40904">
        <ele>656.2</ele>
        <time>2015-12-03T10:28:14Z</time>
      </trkpt>
      <trkpt lat="42.99182" lon="-0.40889">
        <ele>659.6</ele>
        <time>2015-12-03T10:28:30Z</time>
      </trkpt>
      <trkpt lat="42.99189" lon="-0.40887">
        <ele>660.1</ele>
        <time>2015-12-03T10:28:36Z</time>
      </trkpt>
      <trkpt lat="42.99206" lon="-0.40871">
        <ele>661.5</ele>
        <time>2015-12-03T10:28:53Z</time>
      </trkpt>
      <trkpt lat="42.99219" lon="-0.40841">
        <ele>663.9</ele>
        <time>2015-12-03T10:29:12Z</time>
      </trkpt>
      <trkpt lat="42.9922" lon="-0.40827">
        <ele>664.4</ele>
        <time>2015-12-03T10:29:20Z</time>
      </trkpt>
      <trkpt lat="42.99226" lon="-0.40797">
        <ele>666.8</ele>
        <time>2015-12-03T10:29:38Z</time>
      </trkpt>
      <trkpt lat="42.9924" lon="-0.40774">
        <ele>667.8</ele>
        <time>2015-12-03T10:29:56Z</time>
      </trkpt>
      <trkpt lat="42.99247" lon="-0.40761">
        <ele>668.7</ele>
        <time>2015-12-03T10:30:13Z</time>
      </trkpt>
      <trkpt lat="42.9925" lon="-0.40752">
        <ele>670.2</ele>
        <time>2015-12-03T10:30:26Z</time>
      </trkpt>
      <trkpt lat="42.99248" lon="-0.40755">
        <ele>669.7</ele>
        <time>2015-12-03T10:30:35Z</time>
      </trkpt>
      <trkpt lat="42.99253" lon="-0.40756">
        <ele>669.7</ele>
        <time>2015-12-03T10:30:40Z</time>
      </trkpt>
      <trkpt lat="42.99269" lon="-0.40734">
        <ele>672.1</ele>
        <time>2015-12-03T10:31:00Z</time>
      </trkpt>
      <trkpt lat="42.99282" lon="-0.40711">
        <ele>674</ele>
        <time>2015-12-03T10:31:18Z</time>
      </trkpt>
      <trkpt lat="42.99293" lon="-0.40691">
        <ele>675.5</ele>
        <time>2015-12-03T10:31:34Z</time>
      </trkpt>
      <trkpt lat="42.99301" lon="-0.40684">
        <ele>676.9</ele>
        <time>2015-12-03T10:31:42Z</time>
      </trkpt>
      <trkpt lat="42.99314" lon="-0.40671">
        <ele>679.8</ele>
        <time>2015-12-03T10:31:58Z</time>
      </trkpt>
      <trkpt lat="42.99316" lon="-0.40668">
        <ele>680.8</ele>
        <time>2015-12-03T10:32:01Z</time>
      </trkpt>
      <trkpt lat="42.99317" lon="-0.40665">
        <ele>681.2</ele>
        <time>2015-12-03T10:32:04Z</time>
      </trkpt>
      <trkpt lat="42.99328" lon="-0.40649">
        <ele>684.6</ele>
        <time>2015-12-03T10:32:19Z</time>
      </trkpt>
      <trkpt lat="42.99339" lon="-0.40626">
        <ele>687</ele>
        <time>2015-12-03T10:32:37Z</time>
      </trkpt>
      <trkpt lat="42.99343" lon="-0.40607">
        <ele>689.9</ele>
        <time>2015-12-03T10:32:50Z</time>
      </trkpt>
      <trkpt lat="42.99343" lon="-0.40592">
        <ele>693.7</ele>
        <time>2015-12-03T10:33:00Z</time>
      </trkpt>
      <trkpt lat="42.9934" lon="-0.40568">
        <ele>696.1</ele>
        <time>2015-12-03T10:33:16Z</time>
      </trkpt>
      <trkpt lat="42.99337" lon="-0.40541">
        <ele>699</ele>
        <time>2015-12-03T10:33:34Z</time>
      </trkpt>
      <trkpt lat="42.99336" lon="-0.40539">
        <ele>699</ele>
        <time>2015-12-03T10:33:36Z</time>
      </trkpt>
      <trkpt lat="42.99335" lon="-0.40531">
        <ele>700.5</ele>
        <time>2015-12-03T10:33:42Z</time>
      </trkpt>
      <trkpt lat="42.99334" lon="-0.40526">
        <ele>701.4</ele>
        <time>2015-12-03T10:33:45Z</time>
      </trkpt>
      <trkpt lat="42.99333" lon="-0.40509">
        <ele>703.3</ele>
        <time>2015-12-03T10:33:56Z</time>
      </trkpt>
      <trkpt lat="42.99331" lon="-0.40503">
        <ele>703.8</ele>
        <time>2015-12-03T10:34:00Z</time>
      </trkpt>
      <trkpt lat="42.99328" lon="-0.40485">
        <ele>705.3</ele>
        <time>2015-12-03T10:34:12Z</time>
      </trkpt>
      <trkpt lat="42.99328" lon="-0.40479">
        <ele>705.7</ele>
        <time>2015-12-03T10:34:15Z</time>
      </trkpt>
      <trkpt lat="42.99323" lon="-0.40462">
        <ele>707.7</ele>
        <time>2015-12-03T10:34:30Z</time>
      </trkpt>
      <trkpt lat="42.99319" lon="-0.40445">
        <ele>710.1</ele>
        <time>2015-12-03T10:34:45Z</time>
      </trkpt>
      <trkpt lat="42.99311" lon="-0.40432">
        <ele>712.5</ele>
        <time>2015-12-03T10:35:00Z</time>
      </trkpt>
      <trkpt lat="42.99307" lon="-0.40429">
        <ele>713.4</ele>
        <time>2015-12-03T10:35:05Z</time>
      </trkpt>
      <trkpt lat="42.99295" lon="-0.40434">
        <ele>715.4</ele>
        <time>2015-12-03T10:35:17Z</time>
      </trkpt>
      <trkpt lat="42.9928" lon="-0.40442">
        <ele>718.2</ele>
        <time>2015-12-03T10:35:32Z</time>
      </trkpt>
      <trkpt lat="42.99264" lon="-0.40435">
        <ele>720.2</ele>
        <time>2015-12-03T10:35:48Z</time>
      </trkpt>
      <trkpt lat="42.9926" lon="-0.40418">
        <ele>723</ele>
        <time>2015-12-03T10:36:02Z</time>
      </trkpt>
      <trkpt lat="42.99263" lon="-0.40403">
        <ele>724</ele>
        <time>2015-12-03T10:36:19Z</time>
      </trkpt>
      <trkpt lat="42.9927" lon="-0.40376">
        <ele>725.9</ele>
        <time>2015-12-03T10:36:38Z</time>
      </trkpt>
      <trkpt lat="42.99271" lon="-0.40356">
        <ele>728.3</ele>
        <time>2015-12-03T10:36:53Z</time>
      </trkpt>
      <trkpt lat="42.99262" lon="-0.40327">
        <ele>730.7</ele>
        <time>2015-12-03T10:37:14Z</time>
      </trkpt>
      <trkpt lat="42.99251" lon="-0.40303">
        <ele>732.2</ele>
        <time>2015-12-03T10:37:31Z</time>
      </trkpt>
      <trkpt lat="42.99242" lon="-0.40287">
        <ele>734.1</ele>
        <time>2015-12-03T10:37:43Z</time>
      </trkpt>
      <trkpt lat="42.99239" lon="-0.40284">
        <ele>734.6</ele>
        <time>2015-12-03T10:37:46Z</time>
      </trkpt>
      <trkpt lat="42.99224" lon="-0.40268">
        <ele>737</ele>
        <time>2015-12-03T10:38:01Z</time>
      </trkpt>
      <trkpt lat="42.99197" lon="-0.40254">
        <ele>736</ele>
        <time>2015-12-03T10:38:23Z</time>
      </trkpt>
      <trkpt lat="42.99178" lon="-0.40238">
        <ele>736.5</ele>
        <time>2015-12-03T10:38:40Z</time>
      </trkpt>
      <trkpt lat="42.99176" lon="-0.40204">
        <ele>739.9</ele>
        <time>2015-12-03T10:39:01Z</time>
      </trkpt>
      <trkpt lat="42.99171" lon="-0.40181">
        <ele>743.2</ele>
        <time>2015-12-03T10:39:17Z</time>
      </trkpt>
      <trkpt lat="42.99169" lon="-0.40152">
        <ele>744.2</ele>
        <time>2015-12-03T10:39:34Z</time>
      </trkpt>
      <trkpt lat="42.99171" lon="-0.40115">
        <ele>746.6</ele>
        <time>2015-12-03T10:39:55Z</time>
      </trkpt>
      <trkpt lat="42.9917" lon="-0.40084">
        <ele>748</ele>
        <time>2015-12-03T10:40:13Z</time>
      </trkpt>
      <trkpt lat="42.9917" lon="-0.40036">
        <ele>750.4</ele>
        <time>2015-12-03T10:40:40Z</time>
      </trkpt>
      <trkpt lat="42.99172" lon="-0.40009">
        <ele>752.8</ele>
        <time>2015-12-03T10:40:55Z</time>
      </trkpt>
      <trkpt lat="42.99172" lon="-0.39975">
        <ele>753.8</ele>
        <time>2015-12-03T10:41:16Z</time>
      </trkpt>
      <trkpt lat="42.99171" lon="-0.39944">
        <ele>756.7</ele>
        <time>2015-12-03T10:41:34Z</time>
      </trkpt>
      <trkpt lat="42.99177" lon="-0.399">
        <ele>757.7</ele>
        <time>2015-12-03T10:41:59Z</time>
      </trkpt>
      <trkpt lat="42.99182" lon="-0.39888">
        <ele>758.1</ele>
        <time>2015-12-03T10:42:07Z</time>
      </trkpt>
      <trkpt lat="42.99193" lon="-0.39862">
        <ele>760.1</ele>
        <time>2015-12-03T10:42:24Z</time>
      </trkpt>
      <trkpt lat="42.99199" lon="-0.39824">
        <ele>761.5</ele>
        <time>2015-12-03T10:42:46Z</time>
      </trkpt>
      <trkpt lat="42.99202" lon="-0.39782">
        <ele>762.5</ele>
        <time>2015-12-03T10:43:09Z</time>
      </trkpt>
      <trkpt lat="42.9921" lon="-0.39748">
        <ele>763.4</ele>
        <time>2015-12-03T10:43:30Z</time>
      </trkpt>
      <trkpt lat="42.99214" lon="-0.39717">
        <ele>763.9</ele>
        <time>2015-12-03T10:43:49Z</time>
      </trkpt>
      <trkpt lat="42.99216" lon="-0.39706">
        <ele>765.3</ele>
        <time>2015-12-03T10:44:05Z</time>
      </trkpt>
      <trkpt lat="42.99218" lon="-0.39684">
        <ele>767.3</ele>
        <time>2015-12-03T10:44:29Z</time>
      </trkpt>
      <trkpt lat="42.99222" lon="-0.39656">
        <ele>769.2</ele>
        <time>2015-12-03T10:44:45Z</time>
      </trkpt>
      <trkpt lat="42.99223" lon="-0.3965">
        <ele>770.2</ele>
        <time>2015-12-03T10:44:48Z</time>
      </trkpt>
      <trkpt lat="42.99224" lon="-0.39618">
        <ele>772.1</ele>
        <time>2015-12-03T10:45:07Z</time>
      </trkpt>
      <trkpt lat="42.99222" lon="-0.39585">
        <ele>773</ele>
        <time>2015-12-03T10:45:25Z</time>
      </trkpt>
      <trkpt lat="42.99211" lon="-0.39561">
        <ele>775</ele>
        <time>2015-12-03T10:45:42Z</time>
      </trkpt>
      <trkpt lat="42.99208" lon="-0.39555">
        <ele>775.9</ele>
        <time>2015-12-03T10:45:46Z</time>
      </trkpt>
      <trkpt lat="42.99203" lon="-0.39546">
        <ele>777.4</ele>
        <time>2015-12-03T10:45:53Z</time>
      </trkpt>
      <trkpt lat="42.99191" lon="-0.39524">
        <ele>779.8</ele>
        <time>2015-12-03T10:46:09Z</time>
      </trkpt>
      <trkpt lat="42.99187" lon="-0.39517">
        <ele>782.2</ele>
        <time>2015-12-03T10:46:15Z</time>
      </trkpt>
      <trkpt lat="42.99177" lon="-0.39501">
        <ele>785.1</ele>
        <time>2015-12-03T10:46:29Z</time>
      </trkpt>
      <trkpt lat="42.99167" lon="-0.39483">
        <ele>787.9</ele>
        <time>2015-12-03T10:46:42Z</time>
      </trkpt>
      <trkpt lat="42.9916" lon="-0.39481">
        <ele>788.9</ele>
        <time>2015-12-03T10:46:49Z</time>
      </trkpt>
      <trkpt lat="42.99154" lon="-0.39496">
        <ele>789.4</ele>
        <time>2015-12-03T10:46:59Z</time>
      </trkpt>
      <trkpt lat="42.99154" lon="-0.39503">
        <ele>789.9</ele>
        <time>2015-12-03T10:47:04Z</time>
      </trkpt>
      <trkpt lat="42.9915" lon="-0.39524">
        <ele>793.2</ele>
        <time>2015-12-03T10:47:18Z</time>
      </trkpt>
      <trkpt lat="42.99148" lon="-0.39529">
        <ele>792.7</ele>
        <time>2015-12-03T10:47:21Z</time>
      </trkpt>
      <trkpt lat="42.99144" lon="-0.39537">
        <ele>793.2</ele>
        <time>2015-12-03T10:47:27Z</time>
      </trkpt>
      <trkpt lat="42.99131" lon="-0.39552">
        <ele>795.1</ele>
        <time>2015-12-03T10:47:41Z</time>
      </trkpt>
      <trkpt lat="42.99128" lon="-0.39557">
        <ele>795.1</ele>
        <time>2015-12-03T10:47:45Z</time>
      </trkpt>
      <trkpt lat="42.99115" lon="-0.39583">
        <ele>798</ele>
        <time>2015-12-03T10:48:02Z</time>
      </trkpt>
      <trkpt lat="42.99116" lon="-0.39617">
        <ele>799</ele>
        <time>2015-12-03T10:48:21Z</time>
      </trkpt>
      <trkpt lat="42.99116" lon="-0.39657">
        <ele>800.9</ele>
        <time>2015-12-03T10:48:44Z</time>
      </trkpt>
      <trkpt lat="42.99111" lon="-0.39665">
        <ele>802.8</ele>
        <time>2015-12-03T10:48:52Z</time>
      </trkpt>
      <trkpt lat="42.99103" lon="-0.39664">
        <ele>804.8</ele>
        <time>2015-12-03T10:49:04Z</time>
      </trkpt>
      <trkpt lat="42.99099" lon="-0.39657">
        <ele>806.7</ele>
        <time>2015-12-03T10:49:11Z</time>
      </trkpt>
      <trkpt lat="42.99094" lon="-0.3964">
        <ele>808.6</ele>
        <time>2015-12-03T10:49:29Z</time>
      </trkpt>
      <trkpt lat="42.99093" lon="-0.39639">
        <ele>808.6</ele>
        <time>2015-12-03T10:49:30Z</time>
      </trkpt>
      <trkpt lat="42.99087" lon="-0.39618">
        <ele>811</ele>
        <time>2015-12-03T10:49:43Z</time>
      </trkpt>
      <trkpt lat="42.99084" lon="-0.3961">
        <ele>812.5</ele>
        <time>2015-12-03T10:49:49Z</time>
      </trkpt>
      <trkpt lat="42.99078" lon="-0.39604">
        <ele>814.4</ele>
        <time>2015-12-03T10:49:55Z</time>
      </trkpt>
      <trkpt lat="42.99074" lon="-0.39605">
        <ele>814.4</ele>
        <time>2015-12-03T10:49:59Z</time>
      </trkpt>
      <trkpt lat="42.9907" lon="-0.39611">
        <ele>815.3</ele>
        <time>2015-12-03T10:50:04Z</time>
      </trkpt>
      <trkpt lat="42.99071" lon="-0.39638">
        <ele>816.3</ele>
        <time>2015-12-03T10:50:22Z</time>
      </trkpt>
      <trkpt lat="42.9907" lon="-0.39668">
        <ele>817.7</ele>
        <time>2015-12-03T10:50:41Z</time>
      </trkpt>
      <trkpt lat="42.9906" lon="-0.39706">
        <ele>819.2</ele>
        <time>2015-12-03T10:51:04Z</time>
      </trkpt>
      <trkpt lat="42.99041" lon="-0.3973">
        <ele>821.6</ele>
        <time>2015-12-03T10:51:25Z</time>
      </trkpt>
      <trkpt lat="42.99025" lon="-0.39745">
        <ele>824.9</ele>
        <time>2015-12-03T10:51:42Z</time>
      </trkpt>
      <trkpt lat="42.99014" lon="-0.39759">
        <ele>826.4</ele>
        <time>2015-12-03T10:51:55Z</time>
      </trkpt>
      <trkpt lat="42.99" lon="-0.39784">
        <ele>826.9</ele>
        <time>2015-12-03T10:52:13Z</time>
      </trkpt>
      <trkpt lat="42.98986" lon="-0.3981">
        <ele>827.4</ele>
        <time>2015-12-03T10:52:31Z</time>
      </trkpt>
      <trkpt lat="42.98973" lon="-0.39839">
        <ele>830.2</ele>
        <time>2015-12-03T10:52:51Z</time>
      </trkpt>
      <trkpt lat="42.98966" lon="-0.39865">
        <ele>833.1</ele>
        <time>2015-12-03T10:53:07Z</time>
      </trkpt>
      <trkpt lat="42.98961" lon="-0.39892">
        <ele>835</ele>
        <time>2015-12-03T10:53:24Z</time>
      </trkpt>
      <trkpt lat="42.98955" lon="-0.39911">
        <ele>836.5</ele>
        <time>2015-12-03T10:53:36Z</time>
      </trkpt>
      <trkpt lat="42.98952" lon="-0.39911">
        <ele>837</ele>
        <time>2015-12-03T10:53:39Z</time>
      </trkpt>
      <trkpt lat="42.98949" lon="-0.399">
        <ele>837.9</ele>
        <time>2015-12-03T10:53:46Z</time>
      </trkpt>
      <trkpt lat="42.9895" lon="-0.39864">
        <ele>839.8</ele>
        <time>2015-12-03T10:54:07Z</time>
      </trkpt>
      <trkpt lat="42.98945" lon="-0.39832">
        <ele>841.8</ele>
        <time>2015-12-03T10:54:27Z</time>
      </trkpt>
      <trkpt lat="42.98939" lon="-0.39797">
        <ele>844.7</ele>
        <time>2015-12-03T10:54:48Z</time>
      </trkpt>
      <trkpt lat="42.98933" lon="-0.3976">
        <ele>846.1</ele>
        <time>2015-12-03T10:55:09Z</time>
      </trkpt>
      <trkpt lat="42.98928" lon="-0.39729">
        <ele>848</ele>
        <time>2015-12-03T10:55:28Z</time>
      </trkpt>
      <trkpt lat="42.98926" lon="-0.39717">
        <ele>848</ele>
        <time>2015-12-03T10:55:35Z</time>
      </trkpt>
      <trkpt lat="42.98926" lon="-0.39687">
        <ele>850.4</ele>
        <time>2015-12-03T10:55:52Z</time>
      </trkpt>
      <trkpt lat="42.9893" lon="-0.3966">
        <ele>850.9</ele>
        <time>2015-12-03T10:56:08Z</time>
      </trkpt>
      <trkpt lat="42.98938" lon="-0.39621">
        <ele>851.9</ele>
        <time>2015-12-03T10:56:30Z</time>
      </trkpt>
      <trkpt lat="42.98952" lon="-0.39592">
        <ele>852.3</ele>
        <time>2015-12-03T10:56:49Z</time>
      </trkpt>
      <trkpt lat="42.98957" lon="-0.39554">
        <ele>853.8</ele>
        <time>2015-12-03T10:57:12Z</time>
      </trkpt>
      <trkpt lat="42.98954" lon="-0.39544">
        <ele>853.8</ele>
        <time>2015-12-03T10:57:18Z</time>
      </trkpt>
      <trkpt lat="42.98951" lon="-0.39537">
        <ele>853.8</ele>
        <time>2015-12-03T10:57:23Z</time>
      </trkpt>
      <trkpt lat="42.98938" lon="-0.39504">
        <ele>855.2</ele>
        <time>2015-12-03T10:57:44Z</time>
      </trkpt>
      <trkpt lat="42.98926" lon="-0.39479">
        <ele>856.2</ele>
        <time>2015-12-03T10:58:01Z</time>
      </trkpt>
      <trkpt lat="42.98915" lon="-0.39455">
        <ele>858.1</ele>
        <time>2015-12-03T10:58:18Z</time>
      </trkpt>
      <trkpt lat="42.98914" lon="-0.39453">
        <ele>857.6</ele>
        <time>2015-12-03T10:58:19Z</time>
      </trkpt>
      <trkpt lat="42.98907" lon="-0.39433">
        <ele>861</ele>
        <time>2015-12-03T10:58:33Z</time>
      </trkpt>
      <trkpt lat="42.98906" lon="-0.39429">
        <ele>861.5</ele>
        <time>2015-12-03T10:58:36Z</time>
      </trkpt>
      <trkpt lat="42.98905" lon="-0.39424">
        <ele>862</ele>
        <time>2015-12-03T10:58:39Z</time>
      </trkpt>
      <trkpt lat="42.98894" lon="-0.39403">
        <ele>864.4</ele>
        <time>2015-12-03T10:58:56Z</time>
      </trkpt>
      <trkpt lat="42.98883" lon="-0.39387">
        <ele>867.2</ele>
        <time>2015-12-03T10:59:10Z</time>
      </trkpt>
      <trkpt lat="42.98868" lon="-0.39369">
        <ele>869.2</ele>
        <time>2015-12-03T10:59:26Z</time>
      </trkpt>
      <trkpt lat="42.98862" lon="-0.39358">
        <ele>871.1</ele>
        <time>2015-12-03T10:59:34Z</time>
      </trkpt>
      <trkpt lat="42.98855" lon="-0.39343">
        <ele>873</ele>
        <time>2015-12-03T10:59:47Z</time>
      </trkpt>
      <trkpt lat="42.98848" lon="-0.39316">
        <ele>876.4</ele>
        <time>2015-12-03T11:00:06Z</time>
      </trkpt>
      <trkpt lat="42.98844" lon="-0.39302">
        <ele>878.3</ele>
        <time>2015-12-03T11:00:17Z</time>
      </trkpt>
      <trkpt lat="42.98839" lon="-0.39273">
        <ele>880.2</ele>
        <time>2015-12-03T11:00:36Z</time>
      </trkpt>
      <trkpt lat="42.9885" lon="-0.39239">
        <ele>881.7</ele>
        <time>2015-12-03T11:00:58Z</time>
      </trkpt>
      <trkpt lat="42.98855" lon="-0.39215">
        <ele>885</ele>
        <time>2015-12-03T11:01:13Z</time>
      </trkpt>
      <trkpt lat="42.98859" lon="-0.392">
        <ele>886</ele>
        <time>2015-12-03T11:01:22Z</time>
      </trkpt>
      <trkpt lat="42.98865" lon="-0.39193">
        <ele>886.5</ele>
        <time>2015-12-03T11:01:27Z</time>
      </trkpt>
      <trkpt lat="42.98877" lon="-0.3917">
        <ele>887.9</ele>
        <time>2015-12-03T11:01:43Z</time>
      </trkpt>
      <trkpt lat="42.98879" lon="-0.39164">
        <ele>888.4</ele>
        <time>2015-12-03T11:01:47Z</time>
      </trkpt>
      <trkpt lat="42.98884" lon="-0.3914">
        <ele>889.8</ele>
        <time>2015-12-03T11:02:01Z</time>
      </trkpt>
      <trkpt lat="42.98886" lon="-0.39131">
        <ele>890.8</ele>
        <time>2015-12-03T11:02:07Z</time>
      </trkpt>
      <trkpt lat="42.98888" lon="-0.39093">
        <ele>891.8</ele>
        <time>2015-12-03T11:02:28Z</time>
      </trkpt>
      <trkpt lat="42.98887" lon="-0.39076">
        <ele>891.8</ele>
        <time>2015-12-03T11:02:38Z</time>
      </trkpt>
      <trkpt lat="42.98887" lon="-0.39069">
        <ele>891.8</ele>
        <time>2015-12-03T11:02:42Z</time>
      </trkpt>
      <trkpt lat="42.98879" lon="-0.3904">
        <ele>893.2</ele>
        <time>2015-12-03T11:02:59Z</time>
      </trkpt>
      <trkpt lat="42.98881" lon="-0.39016">
        <ele>893.7</ele>
        <time>2015-12-03T11:03:13Z</time>
      </trkpt>
      <trkpt lat="42.9888" lon="-0.39009">
        <ele>894.6</ele>
        <time>2015-12-03T11:03:17Z</time>
      </trkpt>
      <trkpt lat="42.98872" lon="-0.38986">
        <ele>896.6</ele>
        <time>2015-12-03T11:03:33Z</time>
      </trkpt>
      <trkpt lat="42.98856" lon="-0.38957">
        <ele>898</ele>
        <time>2015-12-03T11:03:53Z</time>
      </trkpt>
      <trkpt lat="42.9884" lon="-0.38931">
        <ele>899.9</ele>
        <time>2015-12-03T11:04:12Z</time>
      </trkpt>
      <trkpt lat="42.98825" lon="-0.3891">
        <ele>902.3</ele>
        <time>2015-12-03T11:04:31Z</time>
      </trkpt>
      <trkpt lat="42.98823" lon="-0.38879">
        <ele>904.7</ele>
        <time>2015-12-03T11:04:51Z</time>
      </trkpt>
      <trkpt lat="42.98819" lon="-0.3886">
        <ele>908.1</ele>
        <time>2015-12-03T11:05:05Z</time>
      </trkpt>
      <trkpt lat="42.98807" lon="-0.38845">
        <ele>910.5</ele>
        <time>2015-12-03T11:05:20Z</time>
      </trkpt>
      <trkpt lat="42.98801" lon="-0.38835">
        <ele>911.5</ele>
        <time>2015-12-03T11:05:28Z</time>
      </trkpt>
      <trkpt lat="42.98798" lon="-0.38809">
        <ele>912.4</ele>
        <time>2015-12-03T11:05:44Z</time>
      </trkpt>
      <trkpt lat="42.98793" lon="-0.38788">
        <ele>914.4</ele>
        <time>2015-12-03T11:05:58Z</time>
      </trkpt>
      <trkpt lat="42.98784" lon="-0.38762">
        <ele>917.7</ele>
        <time>2015-12-03T11:06:15Z</time>
      </trkpt>
      <trkpt lat="42.98776" lon="-0.38732">
        <ele>918.7</ele>
        <time>2015-12-03T11:06:34Z</time>
      </trkpt>
      <trkpt lat="42.98776" lon="-0.38699">
        <ele>921.6</ele>
        <time>2015-12-03T11:06:53Z</time>
      </trkpt>
      <trkpt lat="42.98779" lon="-0.38671">
        <ele>924.9</ele>
        <time>2015-12-03T11:07:11Z</time>
      </trkpt>
      <trkpt lat="42.98781" lon="-0.38648">
        <ele>925.9</ele>
        <time>2015-12-03T11:07:25Z</time>
      </trkpt>
      <trkpt lat="42.98783" lon="-0.38634">
        <ele>927.8</ele>
        <time>2015-12-03T11:07:34Z</time>
      </trkpt>
      <trkpt lat="42.98784" lon="-0.38631">
        <ele>928.8</ele>
        <time>2015-12-03T11:07:36Z</time>
      </trkpt>
      <trkpt lat="42.98784" lon="-0.38622">
        <ele>929.7</ele>
        <time>2015-12-03T11:07:41Z</time>
      </trkpt>
      <trkpt lat="42.98788" lon="-0.38593">
        <ele>932.6</ele>
        <time>2015-12-03T11:07:59Z</time>
      </trkpt>
      <trkpt lat="42.98791" lon="-0.38577">
        <ele>933.6</ele>
        <time>2015-12-03T11:08:16Z</time>
      </trkpt>
      <trkpt lat="42.98791" lon="-0.38574">
        <ele>933.1</ele>
        <time>2015-12-03T11:08:19Z</time>
      </trkpt>
      <trkpt lat="42.98789" lon="-0.38566">
        <ele>934.1</ele>
        <time>2015-12-03T11:08:24Z</time>
      </trkpt>
      <trkpt lat="42.98776" lon="-0.38546">
        <ele>936</ele>
        <time>2015-12-03T11:08:42Z</time>
      </trkpt>
      <trkpt lat="42.98769" lon="-0.38531">
        <ele>938.9</ele>
        <time>2015-12-03T11:08:55Z</time>
      </trkpt>
      <trkpt lat="42.98763" lon="-0.38523">
        <ele>939.8</ele>
        <time>2015-12-03T11:09:04Z</time>
      </trkpt>
      <trkpt lat="42.98759" lon="-0.38528">
        <ele>941.3</ele>
        <time>2015-12-03T11:09:10Z</time>
      </trkpt>
      <trkpt lat="42.9876" lon="-0.38537">
        <ele>942.7</ele>
        <time>2015-12-03T11:09:16Z</time>
      </trkpt>
      <trkpt lat="42.98761" lon="-0.38546">
        <ele>943.7</ele>
        <time>2015-12-03T11:09:22Z</time>
      </trkpt>
      <trkpt lat="42.98757" lon="-0.38573">
        <ele>945.1</ele>
        <time>2015-12-03T11:09:39Z</time>
      </trkpt>
      <trkpt lat="42.98748" lon="-0.38589">
        <ele>945.6</ele>
        <time>2015-12-03T11:09:51Z</time>
      </trkpt>
      <trkpt lat="42.98737" lon="-0.38603">
        <ele>948</ele>
        <time>2015-12-03T11:10:03Z</time>
      </trkpt>
      <trkpt lat="42.98723" lon="-0.38617">
        <ele>949.4</ele>
        <time>2015-12-03T11:10:17Z</time>
      </trkpt>
      <trkpt lat="42.98719" lon="-0.38621">
        <ele>949.9</ele>
        <time>2015-12-03T11:10:21Z</time>
      </trkpt>
      <trkpt lat="42.98715" lon="-0.38628">
        <ele>951.4</ele>
        <time>2015-12-03T11:10:28Z</time>
      </trkpt>
      <trkpt lat="42.98711" lon="-0.38638">
        <ele>951.8</ele>
        <time>2015-12-03T11:10:34Z</time>
      </trkpt>
      <trkpt lat="42.98714" lon="-0.38666">
        <ele>954.2</ele>
        <time>2015-12-03T11:10:51Z</time>
      </trkpt>
      <trkpt lat="42.98717" lon="-0.38694">
        <ele>955.7</ele>
        <time>2015-12-03T11:11:07Z</time>
      </trkpt>
      <trkpt lat="42.98718" lon="-0.38723">
        <ele>957.1</ele>
        <time>2015-12-03T11:11:23Z</time>
      </trkpt>
      <trkpt lat="42.98721" lon="-0.38749">
        <ele>958.6</ele>
        <time>2015-12-03T11:11:37Z</time>
      </trkpt>
      <trkpt lat="42.9872" lon="-0.38758">
        <ele>959.1</ele>
        <time>2015-12-03T11:11:43Z</time>
      </trkpt>
      <trkpt lat="42.98719" lon="-0.38761">
        <ele>960.5</ele>
        <time>2015-12-03T11:11:45Z</time>
      </trkpt>
      <trkpt lat="42.98719" lon="-0.38773">
        <ele>960.5</ele>
        <time>2015-12-03T11:11:53Z</time>
      </trkpt>
      <trkpt lat="42.98714" lon="-0.38797">
        <ele>962.9</ele>
        <time>2015-12-03T11:12:08Z</time>
      </trkpt>
      <trkpt lat="42.9871" lon="-0.38813">
        <ele>964.3</ele>
        <time>2015-12-03T11:12:18Z</time>
      </trkpt>
      <trkpt lat="42.98709" lon="-0.38823">
        <ele>964.8</ele>
        <time>2015-12-03T11:12:25Z</time>
      </trkpt>
      <trkpt lat="42.98708" lon="-0.38832">
        <ele>966.3</ele>
        <time>2015-12-03T11:12:30Z</time>
      </trkpt>
      <trkpt lat="42.98709" lon="-0.3886">
        <ele>968.2</ele>
        <time>2015-12-03T11:12:47Z</time>
      </trkpt>
      <trkpt lat="42.98709" lon="-0.38866">
        <ele>969.1</ele>
        <time>2015-12-03T11:12:51Z</time>
      </trkpt>
      <trkpt lat="42.98709" lon="-0.38877">
        <ele>971.1</ele>
        <time>2015-12-03T11:12:57Z</time>
      </trkpt>
      <trkpt lat="42.98704" lon="-0.38907">
        <ele>973.5</ele>
        <time>2015-12-03T11:13:17Z</time>
      </trkpt>
      <trkpt lat="42.98693" lon="-0.38928">
        <ele>975.9</ele>
        <time>2015-12-03T11:13:33Z</time>
      </trkpt>
      <trkpt lat="42.98681" lon="-0.38948">
        <ele>977.3</ele>
        <time>2015-12-03T11:13:50Z</time>
      </trkpt>
      <trkpt lat="42.98677" lon="-0.38952">
        <ele>979.2</ele>
        <time>2015-12-03T11:13:55Z</time>
      </trkpt>
      <trkpt lat="42.98666" lon="-0.3897">
        <ele>980.7</ele>
        <time>2015-12-03T11:14:11Z</time>
      </trkpt>
      <trkpt lat="42.98664" lon="-0.38978">
        <ele>981.6</ele>
        <time>2015-12-03T11:14:17Z</time>
      </trkpt>
      <trkpt lat="42.98663" lon="-0.38985">
        <ele>982.6</ele>
        <time>2015-12-03T11:14:21Z</time>
      </trkpt>
      <trkpt lat="42.98658" lon="-0.39008">
        <ele>984</ele>
        <time>2015-12-03T11:14:36Z</time>
      </trkpt>
      <trkpt lat="42.98658" lon="-0.39009">
        <ele>984</ele>
        <time>2015-12-03T11:14:37Z</time>
      </trkpt>
      <trkpt lat="42.98643" lon="-0.39034">
        <ele>984.5</ele>
        <time>2015-12-03T11:14:56Z</time>
      </trkpt>
      <trkpt lat="42.98634" lon="-0.39053">
        <ele>987.9</ele>
        <time>2015-12-03T11:15:10Z</time>
      </trkpt>
      <trkpt lat="42.98625" lon="-0.39068">
        <ele>990.8</ele>
        <time>2015-12-03T11:15:24Z</time>
      </trkpt>
      <trkpt lat="42.98615" lon="-0.39075">
        <ele>993.7</ele>
        <time>2015-12-03T11:15:35Z</time>
      </trkpt>
      <trkpt lat="42.986" lon="-0.39086">
        <ele>996.1</ele>
        <time>2015-12-03T11:15:49Z</time>
      </trkpt>
      <trkpt lat="42.98594" lon="-0.39107">
        <ele>997</ele>
        <time>2015-12-03T11:16:03Z</time>
      </trkpt>
      <trkpt lat="42.98591" lon="-0.39141">
        <ele>998.9</ele>
        <time>2015-12-03T11:16:23Z</time>
      </trkpt>
      <trkpt lat="42.98594" lon="-0.39173">
        <ele>1002.3</ele>
        <time>2015-12-03T11:16:41Z</time>
      </trkpt>
      <trkpt lat="42.98592" lon="-0.39204">
        <ele>1003.8</ele>
        <time>2015-12-03T11:17:01Z</time>
      </trkpt>
      <trkpt lat="42.98588" lon="-0.392">
        <ele>1004.7</ele>
        <time>2015-12-03T11:17:06Z</time>
      </trkpt>
      <trkpt lat="42.98582" lon="-0.39172">
        <ele>1007.6</ele>
        <time>2015-12-03T11:17:24Z</time>
      </trkpt>
      <trkpt lat="42.98576" lon="-0.3915">
        <ele>1008.6</ele>
        <time>2015-12-03T11:17:42Z</time>
      </trkpt>
      <trkpt lat="42.98574" lon="-0.39131">
        <ele>1010.5</ele>
        <time>2015-12-03T11:17:55Z</time>
      </trkpt>
      <trkpt lat="42.98568" lon="-0.39098">
        <ele>1012.9</ele>
        <time>2015-12-03T11:18:16Z</time>
      </trkpt>
      <trkpt lat="42.98566" lon="-0.39073">
        <ele>1015.8</ele>
        <time>2015-12-03T11:18:34Z</time>
      </trkpt>
      <trkpt lat="42.98567" lon="-0.39067">
        <ele>1015.8</ele>
        <time>2015-12-03T11:18:38Z</time>
      </trkpt>
      <trkpt lat="42.98569" lon="-0.39061">
        <ele>1016.3</ele>
        <time>2015-12-03T11:18:42Z</time>
      </trkpt>
      <trkpt lat="42.98579" lon="-0.3903">
        <ele>1017.7</ele>
        <time>2015-12-03T11:19:03Z</time>
      </trkpt>
      <trkpt lat="42.98585" lon="-0.39012">
        <ele>1020.6</ele>
        <time>2015-12-03T11:19:18Z</time>
      </trkpt>
      <trkpt lat="42.98596" lon="-0.39002">
        <ele>1022.5</ele>
        <time>2015-12-03T11:19:29Z</time>
      </trkpt>
      <trkpt lat="42.98602" lon="-0.38985">
        <ele>1025.4</ele>
        <time>2015-12-03T11:19:43Z</time>
      </trkpt>
      <trkpt lat="42.98605" lon="-0.38967">
        <ele>1028.7</ele>
        <time>2015-12-03T11:19:56Z</time>
      </trkpt>
      <trkpt lat="42.98612" lon="-0.38948">
        <ele>1032.1</ele>
        <time>2015-12-03T11:20:10Z</time>
      </trkpt>
      <trkpt lat="42.98613" lon="-0.38921">
        <ele>1032.6</ele>
        <time>2015-12-03T11:20:28Z</time>
      </trkpt>
      <trkpt lat="42.98611" lon="-0.38903">
        <ele>1036</ele>
        <time>2015-12-03T11:20:42Z</time>
      </trkpt>
      <trkpt lat="42.98608" lon="-0.38876">
        <ele>1038.4</ele>
        <time>2015-12-03T11:20:59Z</time>
      </trkpt>
      <trkpt lat="42.986" lon="-0.38848">
        <ele>1040.3</ele>
        <time>2015-12-03T11:21:18Z</time>
      </trkpt>
      <trkpt lat="42.98597" lon="-0.38828">
        <ele>1042.7</ele>
        <time>2015-12-03T11:21:31Z</time>
      </trkpt>
      <trkpt lat="42.98591" lon="-0.38805">
        <ele>1044.6</ele>
        <time>2015-12-03T11:21:47Z</time>
      </trkpt>
      <trkpt lat="42.98588" lon="-0.38792">
        <ele>1045.6</ele>
        <time>2015-12-03T11:21:56Z</time>
      </trkpt>
      <trkpt lat="42.98587" lon="-0.38788">
        <ele>1046.1</ele>
        <time>2015-12-03T11:21:59Z</time>
      </trkpt>
      <trkpt lat="42.98581" lon="-0.38765">
        <ele>1048.5</ele>
        <time>2015-12-03T11:22:16Z</time>
      </trkpt>
      <trkpt lat="42.98575" lon="-0.38744">
        <ele>1050.9</ele>
        <time>2015-12-03T11:22:31Z</time>
      </trkpt>
      <trkpt lat="42.9857" lon="-0.38719">
        <ele>1053.7</ele>
        <time>2015-12-03T11:22:48Z</time>
      </trkpt>
      <trkpt lat="42.98567" lon="-0.38702">
        <ele>1054.7</ele>
        <time>2015-12-03T11:23:01Z</time>
      </trkpt>
      <trkpt lat="42.98567" lon="-0.38698">
        <ele>1055.2</ele>
        <time>2015-12-03T11:23:05Z</time>
      </trkpt>
      <trkpt lat="42.98566" lon="-0.38695">
        <ele>1056.1</ele>
        <time>2015-12-03T11:23:07Z</time>
      </trkpt>
      <trkpt lat="42.98557" lon="-0.38672">
        <ele>1057.1</ele>
        <time>2015-12-03T11:23:24Z</time>
      </trkpt>
      <trkpt lat="42.9855" lon="-0.38653">
        <ele>1059</ele>
        <time>2015-12-03T11:23:37Z</time>
      </trkpt>
      <trkpt lat="42.98547" lon="-0.3865">
        <ele>1059</ele>
        <time>2015-12-03T11:23:40Z</time>
      </trkpt>
      <trkpt lat="42.98545" lon="-0.38646">
        <ele>1059.5</ele>
        <time>2015-12-03T11:23:43Z</time>
      </trkpt>
      <trkpt lat="42.98536" lon="-0.38637">
        <ele>1060</ele>
        <time>2015-12-03T11:23:52Z</time>
      </trkpt>
      <trkpt lat="42.98524" lon="-0.38631">
        <ele>1060.5</ele>
        <time>2015-12-03T11:24:04Z</time>
      </trkpt>
      <trkpt lat="42.98509" lon="-0.3863">
        <ele>1061.9</ele>
        <time>2015-12-03T11:24:17Z</time>
      </trkpt>
      <trkpt lat="42.98488" lon="-0.38629">
        <ele>1064.3</ele>
        <time>2015-12-03T11:24:37Z</time>
      </trkpt>
      <trkpt lat="42.98482" lon="-0.38624">
        <ele>1065.8</ele>
        <time>2015-12-03T11:24:43Z</time>
      </trkpt>
      <trkpt lat="42.98469" lon="-0.38603">
        <ele>1069.6</ele>
        <time>2015-12-03T11:25:04Z</time>
      </trkpt>
      <trkpt lat="42.98459" lon="-0.38577">
        <ele>1071</ele>
        <time>2015-12-03T11:25:24Z</time>
      </trkpt>
      <trkpt lat="42.98456" lon="-0.38564">
        <ele>1074.9</ele>
        <time>2015-12-03T11:25:34Z</time>
      </trkpt>
      <trkpt lat="42.9845" lon="-0.3854">
        <ele>1077.8</ele>
        <time>2015-12-03T11:25:52Z</time>
      </trkpt>
      <trkpt lat="42.98444" lon="-0.38514">
        <ele>1080.7</ele>
        <time>2015-12-03T11:26:11Z</time>
      </trkpt>
      <trkpt lat="42.98435" lon="-0.38485">
        <ele>1083.5</ele>
        <time>2015-12-03T11:26:32Z</time>
      </trkpt>
      <trkpt lat="42.98433" lon="-0.38455">
        <ele>1085.9</ele>
        <time>2015-12-03T11:26:53Z</time>
      </trkpt>
      <trkpt lat="42.98439" lon="-0.38429">
        <ele>1088.8</ele>
        <time>2015-12-03T11:27:13Z</time>
      </trkpt>
      <trkpt lat="42.98438" lon="-0.38419">
        <ele>1089.8</ele>
        <time>2015-12-03T11:27:20Z</time>
      </trkpt>
      <trkpt lat="42.98439" lon="-0.38416">
        <ele>1089.3</ele>
        <time>2015-12-03T11:27:22Z</time>
      </trkpt>
      <trkpt lat="42.98434" lon="-0.38394">
        <ele>1092.7</ele>
        <time>2015-12-03T11:27:39Z</time>
      </trkpt>
      <trkpt lat="42.98433" lon="-0.3839">
        <ele>1092.2</ele>
        <time>2015-12-03T11:27:42Z</time>
      </trkpt>
      <trkpt lat="42.9843" lon="-0.38369">
        <ele>1095.6</ele>
        <time>2015-12-03T11:27:57Z</time>
      </trkpt>
      <trkpt lat="42.98423" lon="-0.38345">
        <ele>1096.5</ele>
        <time>2015-12-03T11:28:16Z</time>
      </trkpt>
      <trkpt lat="42.98417" lon="-0.38335">
        <ele>1096.5</ele>
        <time>2015-12-03T11:28:32Z</time>
      </trkpt>
      <trkpt lat="42.98416" lon="-0.38333">
        <ele>1098</ele>
        <time>2015-12-03T11:28:35Z</time>
      </trkpt>
      <trkpt lat="42.98409" lon="-0.38317">
        <ele>1100.4</ele>
        <time>2015-12-03T11:28:48Z</time>
      </trkpt>
      <trkpt lat="42.98404" lon="-0.38297">
        <ele>1101.8</ele>
        <time>2015-12-03T11:29:04Z</time>
      </trkpt>
      <trkpt lat="42.98402" lon="-0.38282">
        <ele>1104.2</ele>
        <time>2015-12-03T11:29:15Z</time>
      </trkpt>
      <trkpt lat="42.98402" lon="-0.38252">
        <ele>1105.7</ele>
        <time>2015-12-03T11:29:36Z</time>
      </trkpt>
      <trkpt lat="42.98404" lon="-0.38246">
        <ele>1106.6</ele>
        <time>2015-12-03T11:29:52Z</time>
      </trkpt>
      <trkpt lat="42.98407" lon="-0.38244">
        <ele>1106.6</ele>
        <time>2015-12-03T11:30:29Z</time>
      </trkpt>
      <trkpt lat="42.98411" lon="-0.38234">
        <ele>1108.5</ele>
        <time>2015-12-03T11:30:50Z</time>
      </trkpt>
      <trkpt lat="42.98416" lon="-0.38219">
        <ele>1111.4</ele>
        <time>2015-12-03T11:31:03Z</time>
      </trkpt>
      <trkpt lat="42.98411" lon="-0.38207">
        <ele>1113.3</ele>
        <time>2015-12-03T11:31:14Z</time>
      </trkpt>
      <trkpt lat="42.98404" lon="-0.3821">
        <ele>1114.8</ele>
        <time>2015-12-03T11:31:22Z</time>
      </trkpt>
      <trkpt lat="42.98386" lon="-0.38231">
        <ele>1116.2</ele>
        <time>2015-12-03T11:31:45Z</time>
      </trkpt>
      <trkpt lat="42.9838" lon="-0.38237">
        <ele>1117.7</ele>
        <time>2015-12-03T11:31:52Z</time>
      </trkpt>
      <trkpt lat="42.98371" lon="-0.38254">
        <ele>1120.6</ele>
        <time>2015-12-03T11:32:07Z</time>
      </trkpt>
      <trkpt lat="42.98357" lon="-0.38281">
        <ele>1123.4</ele>
        <time>2015-12-03T11:32:29Z</time>
      </trkpt>
      <trkpt lat="42.98342" lon="-0.38302">
        <ele>1126.3</ele>
        <time>2015-12-03T11:32:48Z</time>
      </trkpt>
      <trkpt lat="42.98329" lon="-0.38322">
        <ele>1127.3</ele>
        <time>2015-12-03T11:33:06Z</time>
      </trkpt>
      <trkpt lat="42.98328" lon="-0.3835">
        <ele>1129.7</ele>
        <time>2015-12-03T11:33:24Z</time>
      </trkpt>
      <trkpt lat="42.98325" lon="-0.38376">
        <ele>1132.6</ele>
        <time>2015-12-03T11:33:42Z</time>
      </trkpt>
      <trkpt lat="42.98317" lon="-0.38402">
        <ele>1133.5</ele>
        <time>2015-12-03T11:34:02Z</time>
      </trkpt>
      <trkpt lat="42.98312" lon="-0.38411">
        <ele>1135.9</ele>
        <time>2015-12-03T11:34:16Z</time>
      </trkpt>
      <trkpt lat="42.983" lon="-0.38411">
        <ele>1137.9</ele>
        <time>2015-12-03T11:34:32Z</time>
      </trkpt>
      <trkpt lat="42.98293" lon="-0.38399">
        <ele>1139.8</ele>
        <time>2015-12-03T11:34:50Z</time>
      </trkpt>
      <trkpt lat="42.98291" lon="-0.38394">
        <ele>1140.7</ele>
        <time>2015-12-03T11:34:58Z</time>
      </trkpt>
      <trkpt lat="42.9829" lon="-0.38382">
        <ele>1142.7</ele>
        <time>2015-12-03T11:35:14Z</time>
      </trkpt>
      <trkpt lat="42.9829" lon="-0.38373">
        <ele>1142.7</ele>
        <time>2015-12-03T11:35:20Z</time>
      </trkpt>
      <trkpt lat="42.98289" lon="-0.38368">
        <ele>1144.1</ele>
        <time>2015-12-03T11:35:24Z</time>
      </trkpt>
      <trkpt lat="42.9829" lon="-0.38333">
        <ele>1146.5</ele>
        <time>2015-12-03T11:35:49Z</time>
      </trkpt>
      <trkpt lat="42.98285" lon="-0.38324">
        <ele>1148</ele>
        <time>2015-12-03T11:35:57Z</time>
      </trkpt>
      <trkpt lat="42.98282" lon="-0.38329">
        <ele>1148</ele>
        <time>2015-12-03T11:36:02Z</time>
      </trkpt>
      <trkpt lat="42.9827" lon="-0.38355">
        <ele>1148.4</ele>
        <time>2015-12-03T11:36:22Z</time>
      </trkpt>
      <trkpt lat="42.98266" lon="-0.38366">
        <ele>1149.9</ele>
        <time>2015-12-03T11:36:38Z</time>
      </trkpt>
      <trkpt lat="42.98261" lon="-0.38368">
        <ele>1150.4</ele>
        <time>2015-12-03T11:36:44Z</time>
      </trkpt>
      <trkpt lat="42.98259" lon="-0.3836">
        <ele>1151.3</ele>
        <time>2015-12-03T11:36:52Z</time>
      </trkpt>
      <trkpt lat="42.98255" lon="-0.38333">
        <ele>1154.2</ele>
        <time>2015-12-03T11:37:13Z</time>
      </trkpt>
      <trkpt lat="42.98253" lon="-0.38313">
        <ele>1157.6</ele>
        <time>2015-12-03T11:37:29Z</time>
      </trkpt>
      <trkpt lat="42.98245" lon="-0.38296">
        <ele>1159</ele>
        <time>2015-12-03T11:37:49Z</time>
      </trkpt>
      <trkpt lat="42.9824" lon="-0.38305">
        <ele>1161.4</ele>
        <time>2015-12-03T11:37:58Z</time>
      </trkpt>
      <trkpt lat="42.98229" lon="-0.38324">
        <ele>1164.8</ele>
        <time>2015-12-03T11:38:18Z</time>
      </trkpt>
      <trkpt lat="42.9822" lon="-0.38326">
        <ele>1167.2</ele>
        <time>2015-12-03T11:38:33Z</time>
      </trkpt>
      <trkpt lat="42.98216" lon="-0.38327">
        <ele>1170.1</ele>
        <time>2015-12-03T11:38:47Z</time>
      </trkpt>
      <trkpt lat="42.98213" lon="-0.38328">
        <ele>1169.1</ele>
        <time>2015-12-03T11:39:09Z</time>
      </trkpt>
      <trkpt lat="42.98216" lon="-0.38327">
        <ele>1169.1</ele>
        <time>2015-12-03T11:39:23Z</time>
      </trkpt>
      <trkpt lat="42.98216" lon="-0.38327">
        <ele>1169.1</ele>
        <time>2015-12-03T11:39:24Z</time>
      </trkpt>
      <trkpt lat="42.98213" lon="-0.38315">
        <ele>1172</ele>
        <time>2015-12-03T11:39:41Z</time>
      </trkpt>
      <trkpt lat="42.98208" lon="-0.38312">
        <ele>1172.9</ele>
        <time>2015-12-03T11:39:56Z</time>
      </trkpt>
      <trkpt lat="42.98201" lon="-0.38303">
        <ele>1175.8</ele>
        <time>2015-12-03T11:40:12Z</time>
      </trkpt>
      <trkpt lat="42.98195" lon="-0.38294">
        <ele>1178.2</ele>
        <time>2015-12-03T11:40:27Z</time>
      </trkpt>
      <trkpt lat="42.98187" lon="-0.38287">
        <ele>1180.6</ele>
        <time>2015-12-03T11:40:43Z</time>
      </trkpt>
      <trkpt lat="42.98184" lon="-0.38286">
        <ele>1181.1</ele>
        <time>2015-12-03T11:41:00Z</time>
      </trkpt>
      <trkpt lat="42.9818" lon="-0.38278">
        <ele>1182.1</ele>
        <time>2015-12-03T11:41:24Z</time>
      </trkpt>
      <trkpt lat="42.98166" lon="-0.38264">
        <ele>1184.5</ele>
        <time>2015-12-03T11:41:44Z</time>
      </trkpt>
      <trkpt lat="42.98158" lon="-0.38255">
        <ele>1186.4</ele>
        <time>2015-12-03T11:41:57Z</time>
      </trkpt>
      <trkpt lat="42.98151" lon="-0.38247">
        <ele>1188.3</ele>
        <time>2015-12-03T11:42:13Z</time>
      </trkpt>
      <trkpt lat="42.98148" lon="-0.38247">
        <ele>1188.3</ele>
        <time>2015-12-03T11:42:34Z</time>
      </trkpt>
      <trkpt lat="42.98147" lon="-0.38246">
        <ele>1189.3</ele>
        <time>2015-12-03T11:42:43Z</time>
      </trkpt>
      <trkpt lat="42.98139" lon="-0.38229">
        <ele>1191.2</ele>
        <time>2015-12-03T11:43:00Z</time>
      </trkpt>
      <trkpt lat="42.98132" lon="-0.38218">
        <ele>1192.2</ele>
        <time>2015-12-03T11:43:15Z</time>
      </trkpt>
      <trkpt lat="42.98127" lon="-0.38203">
        <ele>1194.1</ele>
        <time>2015-12-03T11:43:31Z</time>
      </trkpt>
      <trkpt lat="42.98124" lon="-0.38197">
        <ele>1197</ele>
        <time>2015-12-03T11:43:38Z</time>
      </trkpt>
      <trkpt lat="42.98123" lon="-0.38193">
        <ele>1198.9</ele>
        <time>2015-12-03T11:43:45Z</time>
      </trkpt>
      <trkpt lat="42.98121" lon="-0.38189">
        <ele>1198.9</ele>
        <time>2015-12-03T11:44:00Z</time>
      </trkpt>
      <trkpt lat="42.98119" lon="-0.38187">
        <ele>1197.9</ele>
        <time>2015-12-03T11:44:03Z</time>
      </trkpt>
      <trkpt lat="42.98108" lon="-0.38178">
        <ele>1197</ele>
        <time>2015-12-03T11:44:17Z</time>
      </trkpt>
      <trkpt lat="42.98102" lon="-0.38165">
        <ele>1196.5</ele>
        <time>2015-12-03T11:44:29Z</time>
      </trkpt>
      <trkpt lat="42.981" lon="-0.38157">
        <ele>1197.9</ele>
        <time>2015-12-03T11:44:42Z</time>
      </trkpt>
      <trkpt lat="42.981" lon="-0.38155">
        <ele>1198.4</ele>
        <time>2015-12-03T11:45:02Z</time>
      </trkpt>
      <trkpt lat="42.98103" lon="-0.38153">
        <ele>1199.4</ele>
        <time>2015-12-03T11:45:08Z</time>
      </trkpt>
      <trkpt lat="42.98107" lon="-0.38144">
        <ele>1200.3</ele>
        <time>2015-12-03T11:45:22Z</time>
      </trkpt>
      <trkpt lat="42.98107" lon="-0.38147">
        <ele>1200.3</ele>
        <time>2015-12-03T11:45:37Z</time>
      </trkpt>
      <trkpt lat="42.98107" lon="-0.38154">
        <ele>1199.9</ele>
        <time>2015-12-03T11:45:53Z</time>
      </trkpt>
      <trkpt lat="42.98109" lon="-0.38159">
        <ele>1199.4</ele>
        <time>2015-12-03T11:46:07Z</time>
      </trkpt>
      <trkpt lat="42.98109" lon="-0.3816">
        <ele>1198.9</ele>
        <time>2015-12-03T11:46:17Z</time>
      </trkpt>
      <trkpt lat="42.98109" lon="-0.38159">
        <ele>1199.4</ele>
        <time>2015-12-03T11:52:24Z</time>
      </trkpt>
      <trkpt lat="42.9811" lon="-0.38158">
        <ele>1199.4</ele>
        <time>2015-12-03T11:53:20Z</time>
      </trkpt>
      <trkpt lat="42.9811" lon="-0.38157">
        <ele>1199.4</ele>
        <time>2015-12-03T11:54:13Z</time>
      </trkpt>
      <trkpt lat="42.9811" lon="-0.38158">
        <ele>1198.4</ele>
        <time>2015-12-03T11:55:07Z</time>
      </trkpt>
      <trkpt lat="42.98108" lon="-0.38159">
        <ele>1199.9</ele>
        <time>2015-12-03T12:09:13Z</time>
      </trkpt>
      <trkpt lat="42.98107" lon="-0.38159">
        <ele>1184.5</ele>
        <time>2015-12-03T12:28:00Z</time>
      </trkpt>
      <trkpt lat="42.98101" lon="-0.38171">
        <ele>1176.3</ele>
        <time>2015-12-03T12:28:01Z</time>
      </trkpt>
      <trkpt lat="42.98106" lon="-0.38161">
        <ele>1176.3</ele>
        <time>2015-12-03T12:28:05Z</time>
      </trkpt>
      <trkpt lat="42.98108" lon="-0.3816">
        <ele>1179.2</ele>
        <time>2015-12-03T12:28:16Z</time>
      </trkpt>
      <trkpt lat="42.98108" lon="-0.3816">
        <ele>1180.2</ele>
        <time>2015-12-03T12:28:18Z</time>
      </trkpt>
      <trkpt lat="42.98108" lon="-0.3816">
        <ele>1182.6</ele>
        <time>2015-12-03T12:28:22Z</time>
      </trkpt>
      <trkpt lat="42.98108" lon="-0.38161">
        <ele>1185</ele>
        <time>2015-12-03T12:28:30Z</time>
      </trkpt>
      <trkpt lat="42.98108" lon="-0.38161">
        <ele>1187.8</ele>
        <time>2015-12-03T12:28:38Z</time>
      </trkpt>
      <trkpt lat="42.98109" lon="-0.38161">
        <ele>1190.2</ele>
        <time>2015-12-03T12:28:46Z</time>
      </trkpt>
      <trkpt lat="42.98109" lon="-0.38161">
        <ele>1193.6</ele>
        <time>2015-12-03T12:29:00Z</time>
      </trkpt>
      <trkpt lat="42.98108" lon="-0.38159">
        <ele>1195.1</ele>
        <time>2015-12-03T12:29:07Z</time>
      </trkpt>
      <trkpt lat="42.98107" lon="-0.38157">
        <ele>1197</ele>
        <time>2015-12-03T12:29:42Z</time>
      </trkpt>
      <trkpt lat="42.98105" lon="-0.38159">
        <ele>1195.5</ele>
        <time>2015-12-03T12:29:54Z</time>
      </trkpt>
      <trkpt lat="42.98102" lon="-0.38159">
        <ele>1195.1</ele>
        <time>2015-12-03T12:30:02Z</time>
      </trkpt>
      <trkpt lat="42.98099" lon="-0.38139">
        <ele>1193.6</ele>
        <time>2015-12-03T12:30:19Z</time>
      </trkpt>
      <trkpt lat="42.98098" lon="-0.38136">
        <ele>1193.6</ele>
        <time>2015-12-03T12:30:22Z</time>
      </trkpt>
      <trkpt lat="42.98092" lon="-0.38104">
        <ele>1191.2</ele>
        <time>2015-12-03T12:30:45Z</time>
      </trkpt>
      <trkpt lat="42.98085" lon="-0.38076">
        <ele>1189.8</ele>
        <time>2015-12-03T12:31:07Z</time>
      </trkpt>
      <trkpt lat="42.98081" lon="-0.38041">
        <ele>1187.4</ele>
        <time>2015-12-03T12:31:31Z</time>
      </trkpt>
      <trkpt lat="42.9808" lon="-0.38035">
        <ele>1186.4</ele>
        <time>2015-12-03T12:31:37Z</time>
      </trkpt>
      <trkpt lat="42.98077" lon="-0.38045">
        <ele>1184.5</ele>
        <time>2015-12-03T12:31:55Z</time>
      </trkpt>
      <trkpt lat="42.98075" lon="-0.38052">
        <ele>1184.5</ele>
        <time>2015-12-03T12:32:08Z</time>
      </trkpt>
      <trkpt lat="42.98072" lon="-0.38086">
        <ele>1184</ele>
        <time>2015-12-03T12:32:32Z</time>
      </trkpt>
      <trkpt lat="42.98071" lon="-0.38111">
        <ele>1184.5</ele>
        <time>2015-12-03T12:32:53Z</time>
      </trkpt>
      <trkpt lat="42.98071" lon="-0.38134">
        <ele>1185</ele>
        <time>2015-12-03T12:33:12Z</time>
      </trkpt>
      <trkpt lat="42.9807" lon="-0.38135">
        <ele>1184.5</ele>
        <time>2015-12-03T12:33:34Z</time>
      </trkpt>
      <trkpt lat="42.98069" lon="-0.38155">
        <ele>1185.9</ele>
        <time>2015-12-03T12:33:52Z</time>
      </trkpt>
      <trkpt lat="42.98069" lon="-0.38158">
        <ele>1185</ele>
        <time>2015-12-03T12:33:54Z</time>
      </trkpt>
      <trkpt lat="42.98068" lon="-0.38176">
        <ele>1184</ele>
        <time>2015-12-03T12:34:13Z</time>
      </trkpt>
      <trkpt lat="42.98066" lon="-0.38194">
        <ele>1182.1</ele>
        <time>2015-12-03T12:34:29Z</time>
      </trkpt>
      <trkpt lat="42.98065" lon="-0.38205">
        <ele>1180.2</ele>
        <time>2015-12-03T12:34:42Z</time>
      </trkpt>
      <trkpt lat="42.98062" lon="-0.38227">
        <ele>1176.8</ele>
        <time>2015-12-03T12:34:57Z</time>
      </trkpt>
      <trkpt lat="42.9806" lon="-0.38245">
        <ele>1173.9</ele>
        <time>2015-12-03T12:35:12Z</time>
      </trkpt>
      <trkpt lat="42.98059" lon="-0.38251">
        <ele>1173.4</ele>
        <time>2015-12-03T12:35:33Z</time>
      </trkpt>
      <trkpt lat="42.98057" lon="-0.38263">
        <ele>1172.9</ele>
        <time>2015-12-03T12:35:48Z</time>
      </trkpt>
      <trkpt lat="42.98062" lon="-0.38276">
        <ele>1172.5</ele>
        <time>2015-12-03T12:36:04Z</time>
      </trkpt>
      <trkpt lat="42.98062" lon="-0.38283">
        <ele>1172</ele>
        <time>2015-12-03T12:36:18Z</time>
      </trkpt>
      <trkpt lat="42.98062" lon="-0.383">
        <ele>1170.1</ele>
        <time>2015-12-03T12:36:32Z</time>
      </trkpt>
      <trkpt lat="42.98068" lon="-0.38333">
        <ele>1167.2</ele>
        <time>2015-12-03T12:36:56Z</time>
      </trkpt>
      <trkpt lat="42.98074" lon="-0.38356">
        <ele>1165.3</ele>
        <time>2015-12-03T12:37:14Z</time>
      </trkpt>
      <trkpt lat="42.98077" lon="-0.38371">
        <ele>1163.8</ele>
        <time>2015-12-03T12:37:29Z</time>
      </trkpt>
      <trkpt lat="42.98079" lon="-0.38391">
        <ele>1161.9</ele>
        <time>2015-12-03T12:37:47Z</time>
      </trkpt>
      <trkpt lat="42.98079" lon="-0.38394">
        <ele>1160.4</ele>
        <time>2015-12-03T12:38:15Z</time>
      </trkpt>
      <trkpt lat="42.9808" lon="-0.38422">
        <ele>1158.5</ele>
        <time>2015-12-03T12:38:34Z</time>
      </trkpt>
      <trkpt lat="42.9808" lon="-0.38434">
        <ele>1157.1</ele>
        <time>2015-12-03T12:38:43Z</time>
      </trkpt>
      <trkpt lat="42.98082" lon="-0.38466">
        <ele>1154.2</ele>
        <time>2015-12-03T12:39:06Z</time>
      </trkpt>
      <trkpt lat="42.98083" lon="-0.38493">
        <ele>1152.3</ele>
        <time>2015-12-03T12:39:24Z</time>
      </trkpt>
      <trkpt lat="42.98088" lon="-0.38512">
        <ele>1151.8</ele>
        <time>2015-12-03T12:39:42Z</time>
      </trkpt>
      <trkpt lat="42.98088" lon="-0.38517">
        <ele>1152.3</ele>
        <time>2015-12-03T12:39:49Z</time>
      </trkpt>
      <trkpt lat="42.98084" lon="-0.38531">
        <ele>1151.8</ele>
        <time>2015-12-03T12:40:04Z</time>
      </trkpt>
      <trkpt lat="42.98084" lon="-0.38549">
        <ele>1151.3</ele>
        <time>2015-12-03T12:40:21Z</time>
      </trkpt>
      <trkpt lat="42.98085" lon="-0.38555">
        <ele>1150.4</ele>
        <time>2015-12-03T12:40:41Z</time>
      </trkpt>
      <trkpt lat="42.9809" lon="-0.38568">
        <ele>1149.4</ele>
        <time>2015-12-03T12:40:59Z</time>
      </trkpt>
      <trkpt lat="42.98097" lon="-0.38591">
        <ele>1150.8</ele>
        <time>2015-12-03T12:41:17Z</time>
      </trkpt>
      <trkpt lat="42.98105" lon="-0.38615">
        <ele>1150.8</ele>
        <time>2015-12-03T12:41:35Z</time>
      </trkpt>
      <trkpt lat="42.9811" lon="-0.38631">
        <ele>1152.3</ele>
        <time>2015-12-03T12:41:53Z</time>
      </trkpt>
      <trkpt lat="42.98114" lon="-0.38642">
        <ele>1154.7</ele>
        <time>2015-12-03T12:42:08Z</time>
      </trkpt>
      <trkpt lat="42.98118" lon="-0.38657">
        <ele>1156.1</ele>
        <time>2015-12-03T12:42:26Z</time>
      </trkpt>
      <trkpt lat="42.98124" lon="-0.38664">
        <ele>1158</ele>
        <time>2015-12-03T12:42:50Z</time>
      </trkpt>
      <trkpt lat="42.9813" lon="-0.38673">
        <ele>1160.9</ele>
        <time>2015-12-03T12:43:05Z</time>
      </trkpt>
      <trkpt lat="42.98134" lon="-0.38679">
        <ele>1162.9</ele>
        <time>2015-12-03T12:43:13Z</time>
      </trkpt>
      <trkpt lat="42.9814" lon="-0.38694">
        <ele>1164.3</ele>
        <time>2015-12-03T12:43:28Z</time>
      </trkpt>
      <trkpt lat="42.98142" lon="-0.38698">
        <ele>1165.3</ele>
        <time>2015-12-03T12:43:32Z</time>
      </trkpt>
      <trkpt lat="42.98144" lon="-0.38703">
        <ele>1165.7</ele>
        <time>2015-12-03T12:43:56Z</time>
      </trkpt>
      <trkpt lat="42.98153" lon="-0.38719">
        <ele>1168.1</ele>
        <time>2015-12-03T12:44:11Z</time>
      </trkpt>
      <trkpt lat="42.98164" lon="-0.38741">
        <ele>1167.2</ele>
        <time>2015-12-03T12:44:29Z</time>
      </trkpt>
      <trkpt lat="42.98167" lon="-0.38772">
        <ele>1167.2</ele>
        <time>2015-12-03T12:44:49Z</time>
      </trkpt>
      <trkpt lat="42.98169" lon="-0.38786">
        <ele>1165.7</ele>
        <time>2015-12-03T12:45:05Z</time>
      </trkpt>
      <trkpt lat="42.98175" lon="-0.38804">
        <ele>1162.9</ele>
        <time>2015-12-03T12:45:23Z</time>
      </trkpt>
      <trkpt lat="42.98182" lon="-0.38821">
        <ele>1161.9</ele>
        <time>2015-12-03T12:45:38Z</time>
      </trkpt>
      <trkpt lat="42.98192" lon="-0.3885">
        <ele>1161.4</ele>
        <time>2015-12-03T12:45:59Z</time>
      </trkpt>
      <trkpt lat="42.98199" lon="-0.38878">
        <ele>1159.5</ele>
        <time>2015-12-03T12:46:18Z</time>
      </trkpt>
      <trkpt lat="42.98201" lon="-0.38883">
        <ele>1160</ele>
        <time>2015-12-03T12:46:22Z</time>
      </trkpt>
      <trkpt lat="42.98211" lon="-0.38901">
        <ele>1157.6</ele>
        <time>2015-12-03T12:46:39Z</time>
      </trkpt>
      <trkpt lat="42.98218" lon="-0.38929">
        <ele>1156.6</ele>
        <time>2015-12-03T12:47:00Z</time>
      </trkpt>
      <trkpt lat="42.98227" lon="-0.38964">
        <ele>1153.7</ele>
        <time>2015-12-03T12:47:24Z</time>
      </trkpt>
      <trkpt lat="42.98233" lon="-0.38988">
        <ele>1150.4</ele>
        <time>2015-12-03T12:47:43Z</time>
      </trkpt>
      <trkpt lat="42.98236" lon="-0.39007">
        <ele>1148.4</ele>
        <time>2015-12-03T12:48:03Z</time>
      </trkpt>
      <trkpt lat="42.98239" lon="-0.39023">
        <ele>1147</ele>
        <time>2015-12-03T12:48:23Z</time>
      </trkpt>
      <trkpt lat="42.98243" lon="-0.39039">
        <ele>1143.6</ele>
        <time>2015-12-03T12:48:37Z</time>
      </trkpt>
      <trkpt lat="42.98246" lon="-0.39046">
        <ele>1142.7</ele>
        <time>2015-12-03T12:48:53Z</time>
      </trkpt>
      <trkpt lat="42.98248" lon="-0.39054">
        <ele>1141.2</ele>
        <time>2015-12-03T12:49:21Z</time>
      </trkpt>
      <trkpt lat="42.9825" lon="-0.39065">
        <ele>1137.9</ele>
        <time>2015-12-03T12:49:32Z</time>
      </trkpt>
      <trkpt lat="42.9826" lon="-0.39087">
        <ele>1135.9</ele>
        <time>2015-12-03T12:49:55Z</time>
      </trkpt>
      <trkpt lat="42.98263" lon="-0.391">
        <ele>1132.6</ele>
        <time>2015-12-03T12:50:09Z</time>
      </trkpt>
      <trkpt lat="42.98262" lon="-0.39107">
        <ele>1130.6</ele>
        <time>2015-12-03T12:50:22Z</time>
      </trkpt>
      <trkpt lat="42.98262" lon="-0.39109">
        <ele>1129.2</ele>
        <time>2015-12-03T12:50:24Z</time>
      </trkpt>
      <trkpt lat="42.98262" lon="-0.39126">
        <ele>1126.8</ele>
        <time>2015-12-03T12:50:41Z</time>
      </trkpt>
      <trkpt lat="42.98263" lon="-0.39142">
        <ele>1125.4</ele>
        <time>2015-12-03T12:50:58Z</time>
      </trkpt>
      <trkpt lat="42.98266" lon="-0.39161">
        <ele>1122</ele>
        <time>2015-12-03T12:51:16Z</time>
      </trkpt>
      <trkpt lat="42.98272" lon="-0.3918">
        <ele>1119.1</ele>
        <time>2015-12-03T12:51:36Z</time>
      </trkpt>
      <trkpt lat="42.98278" lon="-0.39196">
        <ele>1116.2</ele>
        <time>2015-12-03T12:51:52Z</time>
      </trkpt>
      <trkpt lat="42.98282" lon="-0.39209">
        <ele>1113.3</ele>
        <time>2015-12-03T12:52:05Z</time>
      </trkpt>
      <trkpt lat="42.98287" lon="-0.39226">
        <ele>1111.4</ele>
        <time>2015-12-03T12:52:24Z</time>
      </trkpt>
      <trkpt lat="42.98288" lon="-0.39239">
        <ele>1108.1</ele>
        <time>2015-12-03T12:52:40Z</time>
      </trkpt>
      <trkpt lat="42.9829" lon="-0.39251">
        <ele>1104.7</ele>
        <time>2015-12-03T12:52:51Z</time>
      </trkpt>
      <trkpt lat="42.9829" lon="-0.39261">
        <ele>1103.7</ele>
        <time>2015-12-03T12:52:59Z</time>
      </trkpt>
      <trkpt lat="42.98289" lon="-0.39276">
        <ele>1100.4</ele>
        <time>2015-12-03T12:53:13Z</time>
      </trkpt>
      <trkpt lat="42.98289" lon="-0.39295">
        <ele>1098.9</ele>
        <time>2015-12-03T12:53:29Z</time>
      </trkpt>
      <trkpt lat="42.9829" lon="-0.39312">
        <ele>1095.6</ele>
        <time>2015-12-03T12:53:43Z</time>
      </trkpt>
      <trkpt lat="42.98291" lon="-0.39333">
        <ele>1092.2</ele>
        <time>2015-12-03T12:54:00Z</time>
      </trkpt>
      <trkpt lat="42.98292" lon="-0.39337">
        <ele>1091.2</ele>
        <time>2015-12-03T12:54:04Z</time>
      </trkpt>
      <trkpt lat="42.9829" lon="-0.39349">
        <ele>1089.3</ele>
        <time>2015-12-03T12:54:21Z</time>
      </trkpt>
      <trkpt lat="42.98285" lon="-0.39347">
        <ele>1087.4</ele>
        <time>2015-12-03T12:54:29Z</time>
      </trkpt>
      <trkpt lat="42.98283" lon="-0.39357">
        <ele>1085.9</ele>
        <time>2015-12-03T12:54:43Z</time>
      </trkpt>
      <trkpt lat="42.98283" lon="-0.39367">
        <ele>1083.1</ele>
        <time>2015-12-03T12:54:56Z</time>
      </trkpt>
      <trkpt lat="42.98282" lon="-0.3938">
        <ele>1081.6</ele>
        <time>2015-12-03T12:55:13Z</time>
      </trkpt>
      <trkpt lat="42.9828" lon="-0.39395">
        <ele>1079.2</ele>
        <time>2015-12-03T12:55:28Z</time>
      </trkpt>
      <trkpt lat="42.9828" lon="-0.39402">
        <ele>1078.7</ele>
        <time>2015-12-03T12:55:33Z</time>
      </trkpt>
      <trkpt lat="42.98278" lon="-0.39411">
        <ele>1077.8</ele>
        <time>2015-12-03T12:55:46Z</time>
      </trkpt>
      <trkpt lat="42.98275" lon="-0.39423">
        <ele>1075.4</ele>
        <time>2015-12-03T12:56:01Z</time>
      </trkpt>
      <trkpt lat="42.98271" lon="-0.39433">
        <ele>1073.9</ele>
        <time>2015-12-03T12:56:15Z</time>
      </trkpt>
      <trkpt lat="42.98268" lon="-0.39427">
        <ele>1071</ele>
        <time>2015-12-03T12:56:32Z</time>
      </trkpt>
      <trkpt lat="42.98266" lon="-0.39414">
        <ele>1069.6</ele>
        <time>2015-12-03T12:56:49Z</time>
      </trkpt>
      <trkpt lat="42.98266" lon="-0.39413">
        <ele>1068.6</ele>
        <time>2015-12-03T12:57:13Z</time>
      </trkpt>
      <trkpt lat="42.98264" lon="-0.39406">
        <ele>1067.2</ele>
        <time>2015-12-03T12:57:27Z</time>
      </trkpt>
      <trkpt lat="42.98262" lon="-0.39397">
        <ele>1066.7</ele>
        <time>2015-12-03T12:57:42Z</time>
      </trkpt>
      <trkpt lat="42.9826" lon="-0.39391">
        <ele>1066.2</ele>
        <time>2015-12-03T12:57:57Z</time>
      </trkpt>
      <trkpt lat="42.98256" lon="-0.39376">
        <ele>1063.8</ele>
        <time>2015-12-03T12:58:13Z</time>
      </trkpt>
      <trkpt lat="42.98251" lon="-0.39363">
        <ele>1062.9</ele>
        <time>2015-12-03T12:58:29Z</time>
      </trkpt>
      <trkpt lat="42.98248" lon="-0.3936">
        <ele>1061.9</ele>
        <time>2015-12-03T12:58:45Z</time>
      </trkpt>
      <trkpt lat="42.98247" lon="-0.39373">
        <ele>1059.5</ele>
        <time>2015-12-03T12:58:59Z</time>
      </trkpt>
      <trkpt lat="42.98246" lon="-0.39381">
        <ele>1057.6</ele>
        <time>2015-12-03T12:59:12Z</time>
      </trkpt>
      <trkpt lat="42.98244" lon="-0.39392">
        <ele>1056.1</ele>
        <time>2015-12-03T12:59:28Z</time>
      </trkpt>
      <trkpt lat="42.98243" lon="-0.39395">
        <ele>1055.2</ele>
        <time>2015-12-03T12:59:44Z</time>
      </trkpt>
      <trkpt lat="42.98243" lon="-0.39395">
        <ele>1055.7</ele>
        <time>2015-12-03T13:00:57Z</time>
      </trkpt>
      <trkpt lat="42.98243" lon="-0.39406">
        <ele>1054.2</ele>
        <time>2015-12-03T13:01:10Z</time>
      </trkpt>
      <trkpt lat="42.98239" lon="-0.3942">
        <ele>1051.3</ele>
        <time>2015-12-03T13:01:26Z</time>
      </trkpt>
      <trkpt lat="42.98234" lon="-0.39439">
        <ele>1048.5</ele>
        <time>2015-12-03T13:01:43Z</time>
      </trkpt>
      <trkpt lat="42.9823" lon="-0.39452">
        <ele>1045.6</ele>
        <time>2015-12-03T13:01:55Z</time>
      </trkpt>
      <trkpt lat="42.98228" lon="-0.39459">
        <ele>1043.6</ele>
        <time>2015-12-03T13:02:01Z</time>
      </trkpt>
      <trkpt lat="42.98221" lon="-0.39476">
        <ele>1041.2</ele>
        <time>2015-12-03T13:02:20Z</time>
      </trkpt>
      <trkpt lat="42.98219" lon="-0.39468">
        <ele>1039.3</ele>
        <time>2015-12-03T13:02:34Z</time>
      </trkpt>
      <trkpt lat="42.98217" lon="-0.39446">
        <ele>1036.4</ele>
        <time>2015-12-03T13:02:56Z</time>
      </trkpt>
      <trkpt lat="42.98216" lon="-0.39444">
        <ele>1036</ele>
        <time>2015-12-03T13:02:58Z</time>
      </trkpt>
      <trkpt lat="42.98216" lon="-0.3943">
        <ele>1034.5</ele>
        <time>2015-12-03T13:03:08Z</time>
      </trkpt>
      <trkpt lat="42.9821" lon="-0.39412">
        <ele>1031.6</ele>
        <time>2015-12-03T13:03:26Z</time>
      </trkpt>
      <trkpt lat="42.98205" lon="-0.39402">
        <ele>1028.3</ele>
        <time>2015-12-03T13:03:37Z</time>
      </trkpt>
      <trkpt lat="42.98197" lon="-0.39385">
        <ele>1025.4</ele>
        <time>2015-12-03T13:03:56Z</time>
      </trkpt>
      <trkpt lat="42.98194" lon="-0.3938">
        <ele>1023.9</ele>
        <time>2015-12-03T13:04:02Z</time>
      </trkpt>
      <trkpt lat="42.98193" lon="-0.39376">
        <ele>1023</ele>
        <time>2015-12-03T13:04:16Z</time>
      </trkpt>
      <trkpt lat="42.98188" lon="-0.39369">
        <ele>1023</ele>
        <time>2015-12-03T13:04:38Z</time>
      </trkpt>
      <trkpt lat="42.98185" lon="-0.39361">
        <ele>1020.6</ele>
        <time>2015-12-03T13:05:07Z</time>
      </trkpt>
      <trkpt lat="42.98176" lon="-0.39351">
        <ele>1017.7</ele>
        <time>2015-12-03T13:05:24Z</time>
      </trkpt>
      <trkpt lat="42.98171" lon="-0.3934">
        <ele>1015.8</ele>
        <time>2015-12-03T13:05:38Z</time>
      </trkpt>
      <trkpt lat="42.98167" lon="-0.39334">
        <ele>1015.3</ele>
        <time>2015-12-03T13:05:46Z</time>
      </trkpt>
      <trkpt lat="42.98158" lon="-0.39318">
        <ele>1011.4</ele>
        <time>2015-12-03T13:06:04Z</time>
      </trkpt>
      <trkpt lat="42.98151" lon="-0.39303">
        <ele>1009.5</ele>
        <time>2015-12-03T13:06:20Z</time>
      </trkpt>
      <trkpt lat="42.98145" lon="-0.39288">
        <ele>1008.1</ele>
        <time>2015-12-03T13:06:38Z</time>
      </trkpt>
      <trkpt lat="42.98142" lon="-0.3928">
        <ele>1007.1</ele>
        <time>2015-12-03T13:07:06Z</time>
      </trkpt>
      <trkpt lat="42.98135" lon="-0.39264">
        <ele>1004.2</ele>
        <time>2015-12-03T13:07:24Z</time>
      </trkpt>
      <trkpt lat="42.98134" lon="-0.39264">
        <ele>1003.8</ele>
        <time>2015-12-03T13:07:25Z</time>
      </trkpt>
      <trkpt lat="42.9813" lon="-0.39251">
        <ele>1003.3</ele>
        <time>2015-12-03T13:07:40Z</time>
      </trkpt>
      <trkpt lat="42.98122" lon="-0.39237">
        <ele>1000.9</ele>
        <time>2015-12-03T13:07:58Z</time>
      </trkpt>
      <trkpt lat="42.98114" lon="-0.39217">
        <ele>998</ele>
        <time>2015-12-03T13:08:16Z</time>
      </trkpt>
      <trkpt lat="42.98108" lon="-0.39198">
        <ele>994.6</ele>
        <time>2015-12-03T13:08:36Z</time>
      </trkpt>
      <trkpt lat="42.98104" lon="-0.39186">
        <ele>991.7</ele>
        <time>2015-12-03T13:08:51Z</time>
      </trkpt>
      <trkpt lat="42.98099" lon="-0.39169">
        <ele>989.8</ele>
        <time>2015-12-03T13:09:08Z</time>
      </trkpt>
      <trkpt lat="42.98093" lon="-0.39151">
        <ele>988.4</ele>
        <time>2015-12-03T13:09:25Z</time>
      </trkpt>
      <trkpt lat="42.98088" lon="-0.39138">
        <ele>986.9</ele>
        <time>2015-12-03T13:09:41Z</time>
      </trkpt>
      <trkpt lat="42.98081" lon="-0.39123">
        <ele>986.4</ele>
        <time>2015-12-03T13:09:58Z</time>
      </trkpt>
      <trkpt lat="42.98078" lon="-0.39112">
        <ele>985.5</ele>
        <time>2015-12-03T13:10:14Z</time>
      </trkpt>
      <trkpt lat="42.98071" lon="-0.391">
        <ele>983.6</ele>
        <time>2015-12-03T13:10:29Z</time>
      </trkpt>
      <trkpt lat="42.98064" lon="-0.39092">
        <ele>980.7</ele>
        <time>2015-12-03T13:10:43Z</time>
      </trkpt>
      <trkpt lat="42.98054" lon="-0.3908">
        <ele>978.8</ele>
        <time>2015-12-03T13:11:01Z</time>
      </trkpt>
      <trkpt lat="42.98049" lon="-0.3907">
        <ele>975.9</ele>
        <time>2015-12-03T13:11:14Z</time>
      </trkpt>
      <trkpt lat="42.98042" lon="-0.3906">
        <ele>975.9</ele>
        <time>2015-12-03T13:11:28Z</time>
      </trkpt>
      <trkpt lat="42.98038" lon="-0.39052">
        <ele>974</ele>
        <time>2015-12-03T13:11:45Z</time>
      </trkpt>
      <trkpt lat="42.98033" lon="-0.39044">
        <ele>972.5</ele>
        <time>2015-12-03T13:11:56Z</time>
      </trkpt>
      <trkpt lat="42.98028" lon="-0.39033">
        <ele>970.6</ele>
        <time>2015-12-03T13:12:08Z</time>
      </trkpt>
      <trkpt lat="42.9802" lon="-0.39019">
        <ele>969.1</ele>
        <time>2015-12-03T13:12:24Z</time>
      </trkpt>
      <trkpt lat="42.98019" lon="-0.39017">
        <ele>967.7</ele>
        <time>2015-12-03T13:12:27Z</time>
      </trkpt>
      <trkpt lat="42.9801" lon="-0.39">
        <ele>964.8</ele>
        <time>2015-12-03T13:12:44Z</time>
      </trkpt>
      <trkpt lat="42.98004" lon="-0.38982">
        <ele>963.4</ele>
        <time>2015-12-03T13:13:01Z</time>
      </trkpt>
      <trkpt lat="42.97997" lon="-0.38956">
        <ele>961</ele>
        <time>2015-12-03T13:13:22Z</time>
      </trkpt>
      <trkpt lat="42.97991" lon="-0.3894">
        <ele>959.1</ele>
        <time>2015-12-03T13:13:35Z</time>
      </trkpt>
      <trkpt lat="42.97982" lon="-0.38928">
        <ele>957.6</ele>
        <time>2015-12-03T13:13:57Z</time>
      </trkpt>
      <trkpt lat="42.97967" lon="-0.38902">
        <ele>955.2</ele>
        <time>2015-12-03T13:14:20Z</time>
      </trkpt>
      <trkpt lat="42.97951" lon="-0.3888">
        <ele>952.3</ele>
        <time>2015-12-03T13:14:42Z</time>
      </trkpt>
      <trkpt lat="42.97946" lon="-0.38861">
        <ele>949</ele>
        <time>2015-12-03T13:14:57Z</time>
      </trkpt>
      <trkpt lat="42.97945" lon="-0.38857">
        <ele>947.5</ele>
        <time>2015-12-03T13:15:00Z</time>
      </trkpt>
      <trkpt lat="42.97935" lon="-0.38842">
        <ele>948</ele>
        <time>2015-12-03T13:15:16Z</time>
      </trkpt>
      <trkpt lat="42.97924" lon="-0.38827">
        <ele>944.6</ele>
        <time>2015-12-03T13:15:33Z</time>
      </trkpt>
      <trkpt lat="42.97917" lon="-0.38815">
        <ele>941.7</ele>
        <time>2015-12-03T13:15:44Z</time>
      </trkpt>
      <trkpt lat="42.97909" lon="-0.38807">
        <ele>941.7</ele>
        <time>2015-12-03T13:15:54Z</time>
      </trkpt>
      <trkpt lat="42.97901" lon="-0.38798">
        <ele>939.8</ele>
        <time>2015-12-03T13:16:07Z</time>
      </trkpt>
      <trkpt lat="42.97889" lon="-0.38787">
        <ele>936.5</ele>
        <time>2015-12-03T13:16:22Z</time>
      </trkpt>
      <trkpt lat="42.97876" lon="-0.38781">
        <ele>933.6</ele>
        <time>2015-12-03T13:16:40Z</time>
      </trkpt>
      <trkpt lat="42.97872" lon="-0.3878">
        <ele>931.7</ele>
        <time>2015-12-03T13:16:45Z</time>
      </trkpt>
      <trkpt lat="42.97862" lon="-0.38773">
        <ele>928.8</ele>
        <time>2015-12-03T13:16:58Z</time>
      </trkpt>
      <trkpt lat="42.97856" lon="-0.38763">
        <ele>926.4</ele>
        <time>2015-12-03T13:17:07Z</time>
      </trkpt>
      <trkpt lat="42.97851" lon="-0.38752">
        <ele>923.5</ele>
        <time>2015-12-03T13:17:21Z</time>
      </trkpt>
      <trkpt lat="42.97853" lon="-0.38734">
        <ele>920.1</ele>
        <time>2015-12-03T13:17:39Z</time>
      </trkpt>
      <trkpt lat="42.97852" lon="-0.38732">
        <ele>919.6</ele>
        <time>2015-12-03T13:17:41Z</time>
      </trkpt>
      <trkpt lat="42.97848" lon="-0.38722">
        <ele>920.1</ele>
        <time>2015-12-03T13:17:57Z</time>
      </trkpt>
      <trkpt lat="42.97841" lon="-0.38711">
        <ele>921.1</ele>
        <time>2015-12-03T13:18:14Z</time>
      </trkpt>
      <trkpt lat="42.97842" lon="-0.38713">
        <ele>920.6</ele>
        <time>2015-12-03T13:18:30Z</time>
      </trkpt>
      <trkpt lat="42.97843" lon="-0.38742">
        <ele>919.6</ele>
        <time>2015-12-03T13:18:49Z</time>
      </trkpt>
      <trkpt lat="42.97841" lon="-0.38778">
        <ele>918.7</ele>
        <time>2015-12-03T13:19:11Z</time>
      </trkpt>
      <trkpt lat="42.97843" lon="-0.38799">
        <ele>915.8</ele>
        <time>2015-12-03T13:19:26Z</time>
      </trkpt>
      <trkpt lat="42.97845" lon="-0.38825">
        <ele>912.4</ele>
        <time>2015-12-03T13:19:44Z</time>
      </trkpt>
      <trkpt lat="42.97847" lon="-0.38846">
        <ele>909.1</ele>
        <time>2015-12-03T13:19:59Z</time>
      </trkpt>
      <trkpt lat="42.97852" lon="-0.38879">
        <ele>906.7</ele>
        <time>2015-12-03T13:20:21Z</time>
      </trkpt>
      <trkpt lat="42.97852" lon="-0.38881">
        <ele>907.1</ele>
        <time>2015-12-03T13:20:30Z</time>
      </trkpt>
      <trkpt lat="42.97851" lon="-0.38913">
        <ele>904.3</ele>
        <time>2015-12-03T13:20:51Z</time>
      </trkpt>
      <trkpt lat="42.9786" lon="-0.38948">
        <ele>901.4</ele>
        <time>2015-12-03T13:21:13Z</time>
      </trkpt>
      <trkpt lat="42.97866" lon="-0.38984">
        <ele>898.5</ele>
        <time>2015-12-03T13:21:35Z</time>
      </trkpt>
      <trkpt lat="42.97874" lon="-0.39022">
        <ele>897</ele>
        <time>2015-12-03T13:21:58Z</time>
      </trkpt>
      <trkpt lat="42.97891" lon="-0.3905">
        <ele>895.1</ele>
        <time>2015-12-03T13:22:20Z</time>
      </trkpt>
      <trkpt lat="42.97906" lon="-0.39079">
        <ele>892.2</ele>
        <time>2015-12-03T13:22:41Z</time>
      </trkpt>
      <trkpt lat="42.97913" lon="-0.39103">
        <ele>890.8</ele>
        <time>2015-12-03T13:22:58Z</time>
      </trkpt>
      <trkpt lat="42.97914" lon="-0.39122">
        <ele>887.4</ele>
        <time>2015-12-03T13:23:10Z</time>
      </trkpt>
      <trkpt lat="42.97914" lon="-0.39124">
        <ele>887.4</ele>
        <time>2015-12-03T13:23:11Z</time>
      </trkpt>
      <trkpt lat="42.97913" lon="-0.39141">
        <ele>884.1</ele>
        <time>2015-12-03T13:23:23Z</time>
      </trkpt>
      <trkpt lat="42.97907" lon="-0.39164">
        <ele>881.7</ele>
        <time>2015-12-03T13:23:40Z</time>
      </trkpt>
      <trkpt lat="42.97905" lon="-0.39176">
        <ele>879.7</ele>
        <time>2015-12-03T13:23:48Z</time>
      </trkpt>
      <trkpt lat="42.97903" lon="-0.39206">
        <ele>876.9</ele>
        <time>2015-12-03T13:24:07Z</time>
      </trkpt>
      <trkpt lat="42.97899" lon="-0.39237">
        <ele>874</ele>
        <time>2015-12-03T13:24:26Z</time>
      </trkpt>
      <trkpt lat="42.97901" lon="-0.39262">
        <ele>870.6</ele>
        <time>2015-12-03T13:24:42Z</time>
      </trkpt>
      <trkpt lat="42.979" lon="-0.39281">
        <ele>867.7</ele>
        <time>2015-12-03T13:24:55Z</time>
      </trkpt>
      <trkpt lat="42.97899" lon="-0.39287">
        <ele>867.2</ele>
        <time>2015-12-03T13:24:58Z</time>
      </trkpt>
      <trkpt lat="42.97898" lon="-0.39294">
        <ele>866.8</ele>
        <time>2015-12-03T13:25:03Z</time>
      </trkpt>
      <trkpt lat="42.97895" lon="-0.39314">
        <ele>863.4</ele>
        <time>2015-12-03T13:25:16Z</time>
      </trkpt>
      <trkpt lat="42.97891" lon="-0.39339">
        <ele>860.5</ele>
        <time>2015-12-03T13:25:34Z</time>
      </trkpt>
      <trkpt lat="42.97895" lon="-0.39356">
        <ele>857.2</ele>
        <time>2015-12-03T13:25:47Z</time>
      </trkpt>
      <trkpt lat="42.97901" lon="-0.39378">
        <ele>854.3</ele>
        <time>2015-12-03T13:26:04Z</time>
      </trkpt>
      <trkpt lat="42.97907" lon="-0.3941">
        <ele>850.9</ele>
        <time>2015-12-03T13:26:25Z</time>
      </trkpt>
      <trkpt lat="42.97911" lon="-0.39436">
        <ele>847.5</ele>
        <time>2015-12-03T13:26:42Z</time>
      </trkpt>
      <trkpt lat="42.97911" lon="-0.39439">
        <ele>847.1</ele>
        <time>2015-12-03T13:26:44Z</time>
      </trkpt>
      <trkpt lat="42.97914" lon="-0.3946">
        <ele>843.7</ele>
        <time>2015-12-03T13:27:00Z</time>
      </trkpt>
      <trkpt lat="42.9791" lon="-0.39477">
        <ele>840.8</ele>
        <time>2015-12-03T13:27:16Z</time>
      </trkpt>
      <trkpt lat="42.97904" lon="-0.39507">
        <ele>837.9</ele>
        <time>2015-12-03T13:27:35Z</time>
      </trkpt>
      <trkpt lat="42.979" lon="-0.39536">
        <ele>834.6</ele>
        <time>2015-12-03T13:27:52Z</time>
      </trkpt>
      <trkpt lat="42.97897" lon="-0.39564">
        <ele>831.2</ele>
        <time>2015-12-03T13:28:09Z</time>
      </trkpt>
      <trkpt lat="42.97885" lon="-0.39597">
        <ele>828.3</ele>
        <time>2015-12-03T13:28:31Z</time>
      </trkpt>
      <trkpt lat="42.97873" lon="-0.39621">
        <ele>824.9</ele>
        <time>2015-12-03T13:28:48Z</time>
      </trkpt>
      <trkpt lat="42.97877" lon="-0.39647">
        <ele>823.5</ele>
        <time>2015-12-03T13:29:06Z</time>
      </trkpt>
      <trkpt lat="42.97884" lon="-0.39664">
        <ele>822.1</ele>
        <time>2015-12-03T13:29:19Z</time>
      </trkpt>
      <trkpt lat="42.97887" lon="-0.39667">
        <ele>821.6</ele>
        <time>2015-12-03T13:29:22Z</time>
      </trkpt>
      <trkpt lat="42.97895" lon="-0.39687">
        <ele>819.2</ele>
        <time>2015-12-03T13:29:36Z</time>
      </trkpt>
      <trkpt lat="42.97892" lon="-0.39692">
        <ele>817.7</ele>
        <time>2015-12-03T13:29:42Z</time>
      </trkpt>
      <trkpt lat="42.97889" lon="-0.39688">
        <ele>817.7</ele>
        <time>2015-12-03T13:29:46Z</time>
      </trkpt>
      <trkpt lat="42.97878" lon="-0.39667">
        <ele>815.3</ele>
        <time>2015-12-03T13:30:03Z</time>
      </trkpt>
      <trkpt lat="42.97869" lon="-0.39656">
        <ele>814.4</ele>
        <time>2015-12-03T13:30:19Z</time>
      </trkpt>
      <trkpt lat="42.97869" lon="-0.39656">
        <ele>813.9</ele>
        <time>2015-12-03T13:30:21Z</time>
      </trkpt>
      <trkpt lat="42.97864" lon="-0.39663">
        <ele>812.9</ele>
        <time>2015-12-03T13:30:33Z</time>
      </trkpt>
      <trkpt lat="42.97863" lon="-0.39664">
        <ele>812.9</ele>
        <time>2015-12-03T13:30:52Z</time>
      </trkpt>
      <trkpt lat="42.97863" lon="-0.39665">
        <ele>813.4</ele>
        <time>2015-12-03T13:30:53Z</time>
      </trkpt>
      <trkpt lat="42.97875" lon="-0.39691">
        <ele>811</ele>
        <time>2015-12-03T13:31:12Z</time>
      </trkpt>
      <trkpt lat="42.97881" lon="-0.39705">
        <ele>810</ele>
        <time>2015-12-03T13:31:22Z</time>
      </trkpt>
      <trkpt lat="42.97895" lon="-0.39742">
        <ele>808.6</ele>
        <time>2015-12-03T13:31:45Z</time>
      </trkpt>
      <trkpt lat="42.97902" lon="-0.39778">
        <ele>807.2</ele>
        <time>2015-12-03T13:32:07Z</time>
      </trkpt>
      <trkpt lat="42.97907" lon="-0.39805">
        <ele>805.7</ele>
        <time>2015-12-03T13:32:26Z</time>
      </trkpt>
    </trkseg>
  </trk>
</gpx>